<?xml version="1.0" encoding="UTF-8" standalone="no" ?>
<gpx xmlns="http://www.topografix.com/GPX/1/1" xmlns:xsi="http://www.w3.org/2001/XMLSchema-instance" xsi:schemaLocation="http://www.topografix.com/GPX/1/1 http://www.topografix.com/GPX/1/1/gpx.xsd" version="1.1" creator="VisuGPX - https://www.visugpx.com">
  <metadata>
    <name>Maurice paques 2018</name>
    <desc><![CDATA[Paques parcours 2018 essai export pour impression]]></desc>
  </metadata>
  <trk>
    <name><![CDATA[Maurice paques 2018_1]]></name>
    <trkseg>
      <trkpt lat="45.39321" lon="5.29645">
        <ele>384</ele>
        <time>2018-03-29T14:09:04Z</time>
      </trkpt>
      <trkpt lat="45.3923" lon="5.29654">
        <ele>382</ele>
        <time>2018-03-29T14:10:04Z</time>
      </trkpt>
      <trkpt lat="45.39231" lon="5.29832">
        <ele>383</ele>
        <time>2018-03-29T14:11:04Z</time>
      </trkpt>
      <trkpt lat="45.3924" lon="5.29936">
        <ele>384</ele>
        <time>2018-03-29T14:12:04Z</time>
      </trkpt>
      <trkpt lat="45.39247" lon="5.29996">
        <ele>384</ele>
        <time>2018-03-29T14:13:04Z</time>
      </trkpt>
      <trkpt lat="45.39246" lon="5.30021">
        <ele>384</ele>
        <time>2018-03-29T14:14:04Z</time>
      </trkpt>
      <trkpt lat="45.39169" lon="5.30641">
        <ele>380</ele>
        <time>2018-03-29T14:15:04Z</time>
      </trkpt>
      <trkpt lat="45.39091" lon="5.31266">
        <ele>384</ele>
        <time>2018-03-29T14:17:04Z</time>
      </trkpt>
      <trkpt lat="45.39065" lon="5.31446">
        <ele>386</ele>
        <time>2018-03-29T14:18:04Z</time>
      </trkpt>
      <trkpt lat="45.39045" lon="5.31639">
        <ele>388</ele>
        <time>2018-03-29T14:19:04Z</time>
      </trkpt>
      <trkpt lat="45.39046" lon="5.31771">
        <ele>389</ele>
        <time>2018-03-29T14:20:04Z</time>
      </trkpt>
      <trkpt lat="45.39042" lon="5.31929">
        <ele>390</ele>
        <time>2018-03-29T14:21:04Z</time>
      </trkpt>
      <trkpt lat="45.39043" lon="5.32249">
        <ele>393</ele>
        <time>2018-03-29T14:22:04Z</time>
      </trkpt>
      <trkpt lat="45.39047" lon="5.32399">
        <ele>394</ele>
        <time>2018-03-29T14:23:04Z</time>
      </trkpt>
      <trkpt lat="45.39053" lon="5.32837">
        <ele>397</ele>
        <time>2018-03-29T14:24:04Z</time>
      </trkpt>
      <trkpt lat="45.39046" lon="5.32842">
        <ele>397</ele>
        <time>2018-03-29T14:25:04Z</time>
      </trkpt>
      <trkpt lat="45.39036" lon="5.32832">
        <ele>397</ele>
        <time>2018-03-29T14:26:04Z</time>
      </trkpt>
      <trkpt lat="45.39013" lon="5.32827">
        <ele>397</ele>
        <time>2018-03-29T14:27:04Z</time>
      </trkpt>
      <trkpt lat="45.38971" lon="5.32849">
        <ele>397</ele>
        <time>2018-03-29T14:28:04Z</time>
      </trkpt>
      <trkpt lat="45.38921" lon="5.32893">
        <ele>397</ele>
        <time>2018-03-29T14:29:04Z</time>
      </trkpt>
      <trkpt lat="45.38902" lon="5.32907">
        <ele>398</ele>
        <time>2018-03-29T14:30:04Z</time>
      </trkpt>
      <trkpt lat="45.38891" lon="5.32915">
        <ele>398</ele>
        <time>2018-03-29T14:32:04Z</time>
      </trkpt>
      <trkpt lat="45.38863" lon="5.32929">
        <ele>398</ele>
        <time>2018-03-29T14:33:04Z</time>
      </trkpt>
      <trkpt lat="45.38817" lon="5.32947">
        <ele>397</ele>
        <time>2018-03-29T14:34:04Z</time>
      </trkpt>
      <trkpt lat="45.38751" lon="5.32967">
        <ele>398</ele>
        <time>2018-03-29T14:35:04Z</time>
      </trkpt>
      <trkpt lat="45.3872" lon="5.32981">
        <ele>398</ele>
        <time>2018-03-29T14:36:04Z</time>
      </trkpt>
      <trkpt lat="45.3866" lon="5.33046">
        <ele>398</ele>
        <time>2018-03-29T14:37:04Z</time>
      </trkpt>
      <trkpt lat="45.38621" lon="5.3308">
        <ele>398</ele>
        <time>2018-03-29T14:38:04Z</time>
      </trkpt>
      <trkpt lat="45.38563" lon="5.33125">
        <ele>399</ele>
        <time>2018-03-29T14:39:04Z</time>
      </trkpt>
      <trkpt lat="45.38463" lon="5.33207">
        <ele>400</ele>
        <time>2018-03-29T14:40:04Z</time>
      </trkpt>
      <trkpt lat="45.38421" lon="5.33236">
        <ele>399</ele>
        <time>2018-03-29T14:41:04Z</time>
      </trkpt>
      <trkpt lat="45.38322" lon="5.33252">
        <ele>404</ele>
        <time>2018-03-29T14:42:04Z</time>
      </trkpt>
      <trkpt lat="45.38304" lon="5.33262">
        <ele>405</ele>
        <time>2018-03-29T14:43:04Z</time>
      </trkpt>
      <trkpt lat="45.38164" lon="5.33275">
        <ele>413</ele>
        <time>2018-03-29T14:44:04Z</time>
      </trkpt>
      <trkpt lat="45.38093" lon="5.33278">
        <ele>416</ele>
        <time>2018-03-29T14:45:04Z</time>
      </trkpt>
      <trkpt lat="45.3801" lon="5.33286">
        <ele>415</ele>
        <time>2018-03-29T14:46:04Z</time>
      </trkpt>
      <trkpt lat="45.37962" lon="5.33294">
        <ele>416</ele>
        <time>2018-03-29T14:47:04Z</time>
      </trkpt>
      <trkpt lat="45.37845" lon="5.33304">
        <ele>416</ele>
        <time>2018-03-29T14:48:04Z</time>
      </trkpt>
      <trkpt lat="45.3777" lon="5.33322">
        <ele>414</ele>
        <time>2018-03-29T14:49:04Z</time>
      </trkpt>
      <trkpt lat="45.37647" lon="5.3336">
        <ele>411</ele>
        <time>2018-03-29T14:50:04Z</time>
      </trkpt>
      <trkpt lat="45.37594" lon="5.33402">
        <ele>412</ele>
        <time>2018-03-29T14:51:04Z</time>
      </trkpt>
      <trkpt lat="45.37566" lon="5.33434">
        <ele>412</ele>
        <time>2018-03-29T14:52:04Z</time>
      </trkpt>
      <trkpt lat="45.3751" lon="5.33522">
        <ele>408</ele>
        <time>2018-03-29T14:53:04Z</time>
      </trkpt>
      <trkpt lat="45.37404" lon="5.3362">
        <ele>406</ele>
        <time>2018-03-29T14:54:04Z</time>
      </trkpt>
      <trkpt lat="45.37342" lon="5.33658">
        <ele>406</ele>
        <time>2018-03-29T14:55:04Z</time>
      </trkpt>
      <trkpt lat="45.37275" lon="5.33719">
        <ele>403</ele>
        <time>2018-03-29T14:56:04Z</time>
      </trkpt>
      <trkpt lat="45.37221" lon="5.3381">
        <ele>398</ele>
        <time>2018-03-29T14:57:04Z</time>
      </trkpt>
      <trkpt lat="45.37194" lon="5.33822">
        <ele>397</ele>
        <time>2018-03-29T14:58:04Z</time>
      </trkpt>
      <trkpt lat="45.37163" lon="5.3382">
        <ele>395</ele>
        <time>2018-03-29T14:59:04Z</time>
      </trkpt>
      <trkpt lat="45.3712" lon="5.33809">
        <ele>394</ele>
        <time>2018-03-29T15:00:04Z</time>
      </trkpt>
      <trkpt lat="45.37039" lon="5.33772">
        <ele>392</ele>
        <time>2018-03-29T15:01:04Z</time>
      </trkpt>
      <trkpt lat="45.36984" lon="5.33758">
        <ele>392</ele>
        <time>2018-03-29T15:02:04Z</time>
      </trkpt>
      <trkpt lat="45.36949" lon="5.33757">
        <ele>393</ele>
        <time>2018-03-29T15:03:04Z</time>
      </trkpt>
      <trkpt lat="45.36884" lon="5.3379">
        <ele>393</ele>
        <time>2018-03-29T15:04:04Z</time>
      </trkpt>
      <trkpt lat="45.36851" lon="5.3382">
        <ele>394</ele>
        <time>2018-03-29T15:05:04Z</time>
      </trkpt>
      <trkpt lat="45.36719" lon="5.34042">
        <ele>395</ele>
        <time>2018-03-29T15:06:04Z</time>
      </trkpt>
      <trkpt lat="45.36689" lon="5.34087">
        <ele>395</ele>
        <time>2018-03-29T15:07:04Z</time>
      </trkpt>
      <trkpt lat="45.36664" lon="5.34108">
        <ele>395</ele>
        <time>2018-03-29T15:08:04Z</time>
      </trkpt>
      <trkpt lat="45.36601" lon="5.34131">
        <ele>395</ele>
        <time>2018-03-29T15:09:04Z</time>
      </trkpt>
      <trkpt lat="45.36513" lon="5.34187">
        <ele>394</ele>
        <time>2018-03-29T15:10:04Z</time>
      </trkpt>
      <trkpt lat="45.36509" lon="5.34195">
        <ele>394</ele>
        <time>2018-03-29T15:11:04Z</time>
      </trkpt>
      <trkpt lat="45.36508" lon="5.34206">
        <ele>395</ele>
        <time>2018-03-29T15:12:04Z</time>
      </trkpt>
      <trkpt lat="45.36511" lon="5.34215">
        <ele>395</ele>
        <time>2018-03-29T15:13:04Z</time>
      </trkpt>
      <trkpt lat="45.36538" lon="5.34264">
        <ele>395</ele>
        <time>2018-03-29T15:14:04Z</time>
      </trkpt>
      <trkpt lat="45.36543" lon="5.34277">
        <ele>395</ele>
        <time>2018-03-29T15:15:04Z</time>
      </trkpt>
      <trkpt lat="45.36551" lon="5.34308">
        <ele>395</ele>
        <time>2018-03-29T15:16:04Z</time>
      </trkpt>
      <trkpt lat="45.36553" lon="5.34327">
        <ele>395</ele>
        <time>2018-03-29T15:17:04Z</time>
      </trkpt>
      <trkpt lat="45.36555" lon="5.3444">
        <ele>395</ele>
        <time>2018-03-29T15:18:04Z</time>
      </trkpt>
      <trkpt lat="45.36559" lon="5.3447">
        <ele>396</ele>
        <time>2018-03-29T15:19:04Z</time>
      </trkpt>
      <trkpt lat="45.36572" lon="5.34519">
        <ele>396</ele>
        <time>2018-03-29T15:20:04Z</time>
      </trkpt>
      <trkpt lat="45.36597" lon="5.34589">
        <ele>397</ele>
        <time>2018-03-29T15:21:04Z</time>
      </trkpt>
      <trkpt lat="45.36602" lon="5.34614">
        <ele>397</ele>
        <time>2018-03-29T15:23:04Z</time>
      </trkpt>
      <trkpt lat="45.36632" lon="5.34801">
        <ele>398</ele>
        <time>2018-03-29T15:24:04Z</time>
      </trkpt>
      <trkpt lat="45.36645" lon="5.34898">
        <ele>399</ele>
        <time>2018-03-29T15:25:04Z</time>
      </trkpt>
      <trkpt lat="45.36651" lon="5.34922">
        <ele>399</ele>
        <time>2018-03-29T15:26:04Z</time>
      </trkpt>
      <trkpt lat="45.36672" lon="5.34975">
        <ele>400</ele>
        <time>2018-03-29T15:27:04Z</time>
      </trkpt>
      <trkpt lat="45.36687" lon="5.35028">
        <ele>401</ele>
        <time>2018-03-29T15:28:04Z</time>
      </trkpt>
      <trkpt lat="45.3669" lon="5.35045">
        <ele>401</ele>
        <time>2018-03-29T15:29:04Z</time>
      </trkpt>
      <trkpt lat="45.36688" lon="5.35056">
        <ele>401</ele>
        <time>2018-03-29T15:30:04Z</time>
      </trkpt>
      <trkpt lat="45.36683" lon="5.35064">
        <ele>401</ele>
        <time>2018-03-29T15:31:04Z</time>
      </trkpt>
      <trkpt lat="45.36602" lon="5.35087">
        <ele>400</ele>
        <time>2018-03-29T15:32:04Z</time>
      </trkpt>
      <trkpt lat="45.36585" lon="5.35093">
        <ele>400</ele>
        <time>2018-03-29T15:33:04Z</time>
      </trkpt>
      <trkpt lat="45.36576" lon="5.35099">
        <ele>400</ele>
        <time>2018-03-29T15:34:04Z</time>
      </trkpt>
      <trkpt lat="45.36566" lon="5.35109">
        <ele>400</ele>
        <time>2018-03-29T15:35:04Z</time>
      </trkpt>
      <trkpt lat="45.3656" lon="5.35121">
        <ele>400</ele>
        <time>2018-03-29T15:36:04Z</time>
      </trkpt>
      <trkpt lat="45.36535" lon="5.35179">
        <ele>400</ele>
        <time>2018-03-29T15:37:04Z</time>
      </trkpt>
      <trkpt lat="45.36528" lon="5.35191">
        <ele>400</ele>
        <time>2018-03-29T15:38:04Z</time>
      </trkpt>
      <trkpt lat="45.36499" lon="5.35209">
        <ele>400</ele>
        <time>2018-03-29T15:39:04Z</time>
      </trkpt>
      <trkpt lat="45.36467" lon="5.35226">
        <ele>400</ele>
        <time>2018-03-29T15:40:04Z</time>
      </trkpt>
      <trkpt lat="45.36446" lon="5.35234">
        <ele>400</ele>
        <time>2018-03-29T15:41:04Z</time>
      </trkpt>
      <trkpt lat="45.36426" lon="5.35236">
        <ele>401</ele>
        <time>2018-03-29T15:42:04Z</time>
      </trkpt>
      <trkpt lat="45.36285" lon="5.35238">
        <ele>398</ele>
        <time>2018-03-29T15:43:04Z</time>
      </trkpt>
      <trkpt lat="45.36283" lon="5.35251">
        <ele>398</ele>
        <time>2018-03-29T15:44:04Z</time>
      </trkpt>
      <trkpt lat="45.36307" lon="5.35395">
        <ele>400</ele>
        <time>2018-03-29T15:45:04Z</time>
      </trkpt>
      <trkpt lat="45.36323" lon="5.35606">
        <ele>401</ele>
        <time>2018-03-29T15:46:04Z</time>
      </trkpt>
      <trkpt lat="45.36324" lon="5.35669">
        <ele>402</ele>
        <time>2018-03-29T15:47:04Z</time>
      </trkpt>
      <trkpt lat="45.36323" lon="5.35736">
        <ele>401</ele>
        <time>2018-03-29T15:48:04Z</time>
      </trkpt>
      <trkpt lat="45.3632" lon="5.35779">
        <ele>401</ele>
        <time>2018-03-29T15:49:04Z</time>
      </trkpt>
      <trkpt lat="45.35657" lon="5.35558">
        <ele>400</ele>
        <time>2018-03-29T15:50:04Z</time>
      </trkpt>
      <trkpt lat="45.35607" lon="5.35539">
        <ele>399</ele>
        <time>2018-03-29T15:51:04Z</time>
      </trkpt>
      <trkpt lat="45.35547" lon="5.35521">
        <ele>398</ele>
        <time>2018-03-29T15:52:04Z</time>
      </trkpt>
      <trkpt lat="45.34782" lon="5.35269">
        <ele>385</ele>
        <time>2018-03-29T15:53:04Z</time>
      </trkpt>
      <trkpt lat="45.34709" lon="5.35238">
        <ele>386</ele>
        <time>2018-03-29T15:54:04Z</time>
      </trkpt>
      <trkpt lat="45.3471" lon="5.35226">
        <ele>386</ele>
        <time>2018-03-29T15:55:04Z</time>
      </trkpt>
      <trkpt lat="45.34708" lon="5.3522">
        <ele>386</ele>
        <time>2018-03-29T15:56:04Z</time>
      </trkpt>
      <trkpt lat="45.34701" lon="5.35215">
        <ele>386</ele>
        <time>2018-03-29T15:57:04Z</time>
      </trkpt>
      <trkpt lat="45.34792" lon="5.33918">
        <ele>382</ele>
        <time>2018-03-29T15:58:04Z</time>
      </trkpt>
      <trkpt lat="45.34798" lon="5.33859">
        <ele>381</ele>
        <time>2018-03-29T15:59:04Z</time>
      </trkpt>
      <trkpt lat="45.34806" lon="5.33852">
        <ele>381</ele>
        <time>2018-03-29T16:00:04Z</time>
      </trkpt>
      <trkpt lat="45.34811" lon="5.33841">
        <ele>380</ele>
        <time>2018-03-29T16:01:04Z</time>
      </trkpt>
      <trkpt lat="45.34813" lon="5.33829">
        <ele>380</ele>
        <time>2018-03-29T16:02:04Z</time>
      </trkpt>
      <trkpt lat="45.34811" lon="5.33817">
        <ele>380</ele>
        <time>2018-03-29T16:03:04Z</time>
      </trkpt>
      <trkpt lat="45.34807" lon="5.33807">
        <ele>379</ele>
        <time>2018-03-29T16:04:04Z</time>
      </trkpt>
      <trkpt lat="45.348" lon="5.33799">
        <ele>379</ele>
        <time>2018-03-29T16:05:04Z</time>
      </trkpt>
      <trkpt lat="45.34791" lon="5.33796">
        <ele>379</ele>
        <time>2018-03-29T16:06:04Z</time>
      </trkpt>
      <trkpt lat="45.34781" lon="5.33799">
        <ele>379</ele>
        <time>2018-03-29T16:07:04Z</time>
      </trkpt>
      <trkpt lat="45.34763" lon="5.33818">
        <ele>380</ele>
        <time>2018-03-29T16:08:04Z</time>
      </trkpt>
      <trkpt lat="45.34719" lon="5.33826">
        <ele>381</ele>
        <time>2018-03-29T16:09:04Z</time>
      </trkpt>
      <trkpt lat="45.34693" lon="5.33828">
        <ele>382</ele>
        <time>2018-03-29T16:10:04Z</time>
      </trkpt>
      <trkpt lat="45.34638" lon="5.33826">
        <ele>382</ele>
        <time>2018-03-29T16:11:04Z</time>
      </trkpt>
      <trkpt lat="45.34556" lon="5.33809">
        <ele>383</ele>
        <time>2018-03-29T16:12:04Z</time>
      </trkpt>
      <trkpt lat="45.34502" lon="5.33802">
        <ele>384</ele>
        <time>2018-03-29T16:13:04Z</time>
      </trkpt>
      <trkpt lat="45.34434" lon="5.33804">
        <ele>385</ele>
        <time>2018-03-29T16:14:04Z</time>
      </trkpt>
      <trkpt lat="45.34394" lon="5.33808">
        <ele>386</ele>
        <time>2018-03-29T16:15:04Z</time>
      </trkpt>
      <trkpt lat="45.34355" lon="5.33816">
        <ele>387</ele>
        <time>2018-03-29T16:16:04Z</time>
      </trkpt>
      <trkpt lat="45.34304" lon="5.33831">
        <ele>388</ele>
        <time>2018-03-29T16:17:04Z</time>
      </trkpt>
      <trkpt lat="45.34256" lon="5.33839">
        <ele>389</ele>
        <time>2018-03-29T16:18:04Z</time>
      </trkpt>
      <trkpt lat="45.34207" lon="5.33841">
        <ele>389</ele>
        <time>2018-03-29T16:19:04Z</time>
      </trkpt>
      <trkpt lat="45.34183" lon="5.33823">
        <ele>390</ele>
        <time>2018-03-29T16:20:04Z</time>
      </trkpt>
      <trkpt lat="45.34168" lon="5.33802">
        <ele>390</ele>
        <time>2018-03-29T16:21:04Z</time>
      </trkpt>
      <trkpt lat="45.34169" lon="5.33792">
        <ele>390</ele>
        <time>2018-03-29T16:22:04Z</time>
      </trkpt>
      <trkpt lat="45.34168" lon="5.33782">
        <ele>391</ele>
        <time>2018-03-29T16:23:04Z</time>
      </trkpt>
      <trkpt lat="45.34164" lon="5.33771">
        <ele>391</ele>
        <time>2018-03-29T16:24:04Z</time>
      </trkpt>
      <trkpt lat="45.34157" lon="5.33763">
        <ele>391</ele>
        <time>2018-03-29T16:25:04Z</time>
      </trkpt>
      <trkpt lat="45.3415" lon="5.33759">
        <ele>391</ele>
        <time>2018-03-29T16:26:04Z</time>
      </trkpt>
      <trkpt lat="45.34142" lon="5.3376">
        <ele>390</ele>
        <time>2018-03-29T16:27:04Z</time>
      </trkpt>
      <trkpt lat="45.34133" lon="5.33766">
        <ele>390</ele>
        <time>2018-03-29T16:28:04Z</time>
      </trkpt>
      <trkpt lat="45.34127" lon="5.33775">
        <ele>390</ele>
        <time>2018-03-29T16:29:04Z</time>
      </trkpt>
      <trkpt lat="45.34082" lon="5.3373">
        <ele>389</ele>
        <time>2018-03-29T16:30:04Z</time>
      </trkpt>
      <trkpt lat="45.34052" lon="5.33714">
        <ele>389</ele>
        <time>2018-03-29T16:31:04Z</time>
      </trkpt>
      <trkpt lat="45.34026" lon="5.33712">
        <ele>389</ele>
        <time>2018-03-29T16:32:04Z</time>
      </trkpt>
      <trkpt lat="45.33979" lon="5.33728">
        <ele>391</ele>
        <time>2018-03-29T16:33:04Z</time>
      </trkpt>
      <trkpt lat="45.3395" lon="5.33752">
        <ele>393</ele>
        <time>2018-03-29T16:34:04Z</time>
      </trkpt>
      <trkpt lat="45.33916" lon="5.33806">
        <ele>395</ele>
        <time>2018-03-29T16:35:04Z</time>
      </trkpt>
      <trkpt lat="45.33902" lon="5.33834">
        <ele>397</ele>
        <time>2018-03-29T16:36:04Z</time>
      </trkpt>
      <trkpt lat="45.33887" lon="5.3381">
        <ele>399</ele>
        <time>2018-03-29T16:37:04Z</time>
      </trkpt>
      <trkpt lat="45.33874" lon="5.33777">
        <ele>401</ele>
        <time>2018-03-29T16:38:04Z</time>
      </trkpt>
      <trkpt lat="45.33875" lon="5.33662">
        <ele>400</ele>
        <time>2018-03-29T16:39:04Z</time>
      </trkpt>
      <trkpt lat="45.33859" lon="5.33534">
        <ele>402</ele>
        <time>2018-03-29T16:40:04Z</time>
      </trkpt>
      <trkpt lat="45.33835" lon="5.33269">
        <ele>403</ele>
        <time>2018-03-29T16:42:04Z</time>
      </trkpt>
      <trkpt lat="45.33826" lon="5.33179">
        <ele>404</ele>
        <time>2018-03-29T16:43:04Z</time>
      </trkpt>
      <trkpt lat="45.33791" lon="5.32698">
        <ele>400</ele>
        <time>2018-03-29T16:44:04Z</time>
      </trkpt>
      <trkpt lat="45.33675" lon="5.31438">
        <ele>389</ele>
        <time>2018-03-29T16:45:04Z</time>
      </trkpt>
      <trkpt lat="45.33672" lon="5.31217">
        <ele>386</ele>
        <time>2018-03-29T16:46:04Z</time>
      </trkpt>
      <trkpt lat="45.33682" lon="5.3072">
        <ele>380</ele>
        <time>2018-03-29T16:47:04Z</time>
      </trkpt>
      <trkpt lat="45.33655" lon="5.30565">
        <ele>382</ele>
        <time>2018-03-29T16:48:04Z</time>
      </trkpt>
      <trkpt lat="45.33654" lon="5.30535">
        <ele>381</ele>
        <time>2018-03-29T16:49:04Z</time>
      </trkpt>
      <trkpt lat="45.33655" lon="5.30294">
        <ele>376</ele>
        <time>2018-03-29T16:50:04Z</time>
      </trkpt>
      <trkpt lat="45.33651" lon="5.30195">
        <ele>374</ele>
        <time>2018-03-29T16:51:04Z</time>
      </trkpt>
      <trkpt lat="45.33649" lon="5.30183">
        <ele>374</ele>
        <time>2018-03-29T16:52:04Z</time>
      </trkpt>
      <trkpt lat="45.33555" lon="5.29886">
        <ele>376</ele>
        <time>2018-03-29T16:53:04Z</time>
      </trkpt>
      <trkpt lat="45.33423" lon="5.29451">
        <ele>378</ele>
        <time>2018-03-29T16:54:04Z</time>
      </trkpt>
      <trkpt lat="45.33401" lon="5.29378">
        <ele>377</ele>
        <time>2018-03-29T16:56:04Z</time>
      </trkpt>
      <trkpt lat="45.33359" lon="5.29259">
        <ele>375</ele>
        <time>2018-03-29T16:57:04Z</time>
      </trkpt>
      <trkpt lat="45.33328" lon="5.29213">
        <ele>375</ele>
        <time>2018-03-29T16:58:04Z</time>
      </trkpt>
      <trkpt lat="45.33104" lon="5.28928">
        <ele>373</ele>
        <time>2018-03-29T16:59:04Z</time>
      </trkpt>
      <trkpt lat="45.3308" lon="5.28888">
        <ele>374</ele>
        <time>2018-03-29T17:00:04Z</time>
      </trkpt>
      <trkpt lat="45.33069" lon="5.28847">
        <ele>376</ele>
        <time>2018-03-29T17:01:04Z</time>
      </trkpt>
      <trkpt lat="45.33058" lon="5.287">
        <ele>375</ele>
        <time>2018-03-29T17:02:04Z</time>
      </trkpt>
      <trkpt lat="45.32986" lon="5.27666">
        <ele>382</ele>
        <time>2018-03-29T17:03:04Z</time>
      </trkpt>
      <trkpt lat="45.32975" lon="5.27531">
        <ele>382</ele>
        <time>2018-03-29T17:04:04Z</time>
      </trkpt>
      <trkpt lat="45.3297" lon="5.27435">
        <ele>383</ele>
        <time>2018-03-29T17:05:04Z</time>
      </trkpt>
      <trkpt lat="45.3298" lon="5.2723">
        <ele>385</ele>
        <time>2018-03-29T17:06:04Z</time>
      </trkpt>
      <trkpt lat="45.32982" lon="5.27078">
        <ele>385</ele>
        <time>2018-03-29T17:07:04Z</time>
      </trkpt>
      <trkpt lat="45.32979" lon="5.26976">
        <ele>385</ele>
        <time>2018-03-29T17:08:04Z</time>
      </trkpt>
      <trkpt lat="45.32967" lon="5.26875">
        <ele>386</ele>
        <time>2018-03-29T17:09:04Z</time>
      </trkpt>
      <trkpt lat="45.32958" lon="5.26781">
        <ele>386</ele>
        <time>2018-03-29T17:10:04Z</time>
      </trkpt>
      <trkpt lat="45.32932" lon="5.26656">
        <ele>385</ele>
        <time>2018-03-29T17:11:04Z</time>
      </trkpt>
      <trkpt lat="45.32904" lon="5.26488">
        <ele>384</ele>
        <time>2018-03-29T17:12:04Z</time>
      </trkpt>
      <trkpt lat="45.32903" lon="5.26471">
        <ele>384</ele>
        <time>2018-03-29T17:13:04Z</time>
      </trkpt>
      <trkpt lat="45.32898" lon="5.26451">
        <ele>385</ele>
        <time>2018-03-29T17:14:04Z</time>
      </trkpt>
      <trkpt lat="45.32853" lon="5.26211">
        <ele>383</ele>
        <time>2018-03-29T17:15:04Z</time>
      </trkpt>
      <trkpt lat="45.32833" lon="5.2609">
        <ele>382</ele>
        <time>2018-03-29T17:16:04Z</time>
      </trkpt>
      <trkpt lat="45.32829" lon="5.26028">
        <ele>382</ele>
        <time>2018-03-29T17:17:04Z</time>
      </trkpt>
      <trkpt lat="45.32823" lon="5.25868">
        <ele>382</ele>
        <time>2018-03-29T17:19:04Z</time>
      </trkpt>
      <trkpt lat="45.3281" lon="5.25831">
        <ele>382</ele>
        <time>2018-03-29T17:20:04Z</time>
      </trkpt>
      <trkpt lat="45.32781" lon="5.25765">
        <ele>382</ele>
        <time>2018-03-29T17:21:04Z</time>
      </trkpt>
      <trkpt lat="45.32769" lon="5.25684">
        <ele>382</ele>
        <time>2018-03-29T17:22:04Z</time>
      </trkpt>
      <trkpt lat="45.32753" lon="5.25641">
        <ele>384</ele>
        <time>2018-03-29T17:23:04Z</time>
      </trkpt>
      <trkpt lat="45.32675" lon="5.25532">
        <ele>388</ele>
        <time>2018-03-29T17:24:04Z</time>
      </trkpt>
      <trkpt lat="45.32648" lon="5.25497">
        <ele>391</ele>
        <time>2018-03-29T17:25:04Z</time>
      </trkpt>
      <trkpt lat="45.32636" lon="5.25469">
        <ele>392</ele>
        <time>2018-03-29T17:26:04Z</time>
      </trkpt>
      <trkpt lat="45.32626" lon="5.25449">
        <ele>393</ele>
        <time>2018-03-29T17:27:04Z</time>
      </trkpt>
      <trkpt lat="45.32622" lon="5.25421">
        <ele>394</ele>
        <time>2018-03-29T17:28:04Z</time>
      </trkpt>
      <trkpt lat="45.3262" lon="5.25394">
        <ele>394</ele>
        <time>2018-03-29T17:29:04Z</time>
      </trkpt>
      <trkpt lat="45.32628" lon="5.25121">
        <ele>388</ele>
        <time>2018-03-29T17:30:04Z</time>
      </trkpt>
      <trkpt lat="45.32629" lon="5.25094">
        <ele>387</ele>
        <time>2018-03-29T17:32:04Z</time>
      </trkpt>
      <trkpt lat="45.32615" lon="5.24988">
        <ele>384</ele>
        <time>2018-03-29T17:33:04Z</time>
      </trkpt>
      <trkpt lat="45.32572" lon="5.24742">
        <ele>388</ele>
        <time>2018-03-29T17:34:04Z</time>
      </trkpt>
      <trkpt lat="45.32559" lon="5.24652">
        <ele>388</ele>
        <time>2018-03-29T17:35:04Z</time>
      </trkpt>
      <trkpt lat="45.32522" lon="5.24283">
        <ele>384</ele>
        <time>2018-03-29T17:36:04Z</time>
      </trkpt>
      <trkpt lat="45.32508" lon="5.24115">
        <ele>377</ele>
        <time>2018-03-29T17:37:04Z</time>
      </trkpt>
      <trkpt lat="45.32484" lon="5.24029">
        <ele>373</ele>
        <time>2018-03-29T17:38:04Z</time>
      </trkpt>
      <trkpt lat="45.32294" lon="5.23434">
        <ele>368</ele>
        <time>2018-03-29T17:39:04Z</time>
      </trkpt>
      <trkpt lat="45.32245" lon="5.23273">
        <ele>367</ele>
        <time>2018-03-29T17:40:04Z</time>
      </trkpt>
      <trkpt lat="45.32203" lon="5.23182">
        <ele>366</ele>
        <time>2018-03-29T17:41:04Z</time>
      </trkpt>
      <trkpt lat="45.32164" lon="5.23115">
        <ele>365</ele>
        <time>2018-03-29T17:42:04Z</time>
      </trkpt>
      <trkpt lat="45.32108" lon="5.23043">
        <ele>366</ele>
        <time>2018-03-29T17:43:04Z</time>
      </trkpt>
      <trkpt lat="45.32102" lon="5.23023">
        <ele>366</ele>
        <time>2018-03-29T17:44:04Z</time>
      </trkpt>
      <trkpt lat="45.32095" lon="5.22878">
        <ele>366</ele>
        <time>2018-03-29T17:45:04Z</time>
      </trkpt>
      <trkpt lat="45.32125" lon="5.22549">
        <ele>369</ele>
        <time>2018-03-29T17:46:04Z</time>
      </trkpt>
      <trkpt lat="45.32135" lon="5.2239">
        <ele>367</ele>
        <time>2018-03-29T17:47:04Z</time>
      </trkpt>
      <trkpt lat="45.32295" lon="5.21869">
        <ele>365</ele>
        <time>2018-03-29T17:48:04Z</time>
      </trkpt>
      <trkpt lat="45.32297" lon="5.21645">
        <ele>365</ele>
        <time>2018-03-29T17:49:04Z</time>
      </trkpt>
      <trkpt lat="45.32222" lon="5.21271">
        <ele>368</ele>
        <time>2018-03-29T17:50:04Z</time>
      </trkpt>
      <trkpt lat="45.32147" lon="5.20971">
        <ele>368</ele>
        <time>2018-03-29T17:51:04Z</time>
      </trkpt>
      <trkpt lat="45.32072" lon="5.20693">
        <ele>372</ele>
        <time>2018-03-29T17:52:04Z</time>
      </trkpt>
      <trkpt lat="45.32041" lon="5.2057">
        <ele>372</ele>
        <time>2018-03-29T17:53:04Z</time>
      </trkpt>
      <trkpt lat="45.32012" lon="5.20528">
        <ele>369</ele>
        <time>2018-03-29T17:54:04Z</time>
      </trkpt>
      <trkpt lat="45.31981" lon="5.20518">
        <ele>368</ele>
        <time>2018-03-29T17:55:04Z</time>
      </trkpt>
      <trkpt lat="45.31675" lon="5.20577">
        <ele>364</ele>
        <time>2018-03-29T17:56:04Z</time>
      </trkpt>
      <trkpt lat="45.31655" lon="5.20572">
        <ele>363</ele>
        <time>2018-03-29T17:57:04Z</time>
      </trkpt>
      <trkpt lat="45.31639" lon="5.20558">
        <ele>361</ele>
        <time>2018-03-29T17:58:04Z</time>
      </trkpt>
      <trkpt lat="45.31597" lon="5.20502">
        <ele>358</ele>
        <time>2018-03-29T17:59:04Z</time>
      </trkpt>
      <trkpt lat="45.31587" lon="5.20486">
        <ele>358</ele>
        <time>2018-03-29T18:01:04Z</time>
      </trkpt>
      <trkpt lat="45.31598" lon="5.20481">
        <ele>358</ele>
        <time>2018-03-29T18:02:04Z</time>
      </trkpt>
      <trkpt lat="45.31617" lon="5.20477">
        <ele>358</ele>
        <time>2018-03-29T18:03:04Z</time>
      </trkpt>
      <trkpt lat="45.31658" lon="5.20453">
        <ele>357</ele>
        <time>2018-03-29T18:04:04Z</time>
      </trkpt>
      <trkpt lat="45.31719" lon="5.20414">
        <ele>355</ele>
        <time>2018-03-29T18:05:04Z</time>
      </trkpt>
      <trkpt lat="45.31706" lon="5.20366">
        <ele>354</ele>
        <time>2018-03-29T18:06:04Z</time>
      </trkpt>
      <trkpt lat="45.31658" lon="5.20281">
        <ele>354</ele>
        <time>2018-03-29T18:08:04Z</time>
      </trkpt>
      <trkpt lat="45.31651" lon="5.20264">
        <ele>354</ele>
        <time>2018-03-29T18:09:04Z</time>
      </trkpt>
      <trkpt lat="45.3165" lon="5.20255">
        <ele>354</ele>
        <time>2018-03-29T18:11:04Z</time>
      </trkpt>
      <trkpt lat="45.31654" lon="5.20247">
        <ele>354</ele>
        <time>2018-03-29T18:12:04Z</time>
      </trkpt>
      <trkpt lat="45.31922" lon="5.20042">
        <ele>349</ele>
        <time>2018-03-29T18:13:04Z</time>
      </trkpt>
      <trkpt lat="45.31962" lon="5.20015">
        <ele>348</ele>
        <time>2018-03-29T18:14:04Z</time>
      </trkpt>
      <trkpt lat="45.32142" lon="5.19935">
        <ele>349</ele>
        <time>2018-03-29T18:15:04Z</time>
      </trkpt>
      <trkpt lat="45.32248" lon="5.19891">
        <ele>348</ele>
        <time>2018-03-29T18:16:04Z</time>
      </trkpt>
      <trkpt lat="45.32417" lon="5.19811">
        <ele>343</ele>
        <time>2018-03-29T18:17:04Z</time>
      </trkpt>
      <trkpt lat="45.32435" lon="5.19796">
        <ele>342</ele>
        <time>2018-03-29T18:18:04Z</time>
      </trkpt>
      <trkpt lat="45.32448" lon="5.19777">
        <ele>342</ele>
        <time>2018-03-29T18:19:04Z</time>
      </trkpt>
      <trkpt lat="45.32456" lon="5.19757">
        <ele>342</ele>
        <time>2018-03-29T18:20:04Z</time>
      </trkpt>
      <trkpt lat="45.32458" lon="5.19736">
        <ele>341</ele>
        <time>2018-03-29T18:21:04Z</time>
      </trkpt>
      <trkpt lat="45.32456" lon="5.19711">
        <ele>340</ele>
        <time>2018-03-29T18:22:04Z</time>
      </trkpt>
      <trkpt lat="45.32397" lon="5.19504">
        <ele>328</ele>
        <time>2018-03-29T18:23:04Z</time>
      </trkpt>
      <trkpt lat="45.32328" lon="5.19249">
        <ele>322</ele>
        <time>2018-03-29T18:24:04Z</time>
      </trkpt>
      <trkpt lat="45.31959" lon="5.17938">
        <ele>306</ele>
        <time>2018-03-29T18:25:04Z</time>
      </trkpt>
      <trkpt lat="45.3193" lon="5.17822">
        <ele>307</ele>
        <time>2018-03-29T18:26:04Z</time>
      </trkpt>
      <trkpt lat="45.31917" lon="5.17761">
        <ele>309</ele>
        <time>2018-03-29T18:27:04Z</time>
      </trkpt>
      <trkpt lat="45.31912" lon="5.17721">
        <ele>310</ele>
        <time>2018-03-29T18:28:04Z</time>
      </trkpt>
      <trkpt lat="45.31875" lon="5.17495">
        <ele>311</ele>
        <time>2018-03-29T18:29:04Z</time>
      </trkpt>
      <trkpt lat="45.31841" lon="5.17261">
        <ele>311</ele>
        <time>2018-03-29T18:30:04Z</time>
      </trkpt>
      <trkpt lat="45.3181" lon="5.17071">
        <ele>321</ele>
        <time>2018-03-29T18:31:04Z</time>
      </trkpt>
      <trkpt lat="45.31795" lon="5.1698">
        <ele>320</ele>
        <time>2018-03-29T18:33:04Z</time>
      </trkpt>
      <trkpt lat="45.31814" lon="5.16983">
        <ele>319</ele>
        <time>2018-03-29T18:34:04Z</time>
      </trkpt>
      <trkpt lat="45.31942" lon="5.17037">
        <ele>314</ele>
        <time>2018-03-29T18:35:04Z</time>
      </trkpt>
      <trkpt lat="45.31982" lon="5.17052">
        <ele>312</ele>
        <time>2018-03-29T18:36:04Z</time>
      </trkpt>
      <trkpt lat="45.32022" lon="5.17075">
        <ele>310</ele>
        <time>2018-03-29T18:37:04Z</time>
      </trkpt>
      <trkpt lat="45.32043" lon="5.17093">
        <ele>309</ele>
        <time>2018-03-29T18:38:04Z</time>
      </trkpt>
      <trkpt lat="45.32337" lon="5.17271">
        <ele>300</ele>
        <time>2018-03-29T18:39:04Z</time>
      </trkpt>
      <trkpt lat="45.32941" lon="5.17645">
        <ele>303</ele>
        <time>2018-03-29T18:40:04Z</time>
      </trkpt>
      <trkpt lat="45.33552" lon="5.18027">
        <ele>306</ele>
        <time>2018-03-29T18:41:04Z</time>
      </trkpt>
      <trkpt lat="45.33573" lon="5.18037">
        <ele>306</ele>
        <time>2018-03-29T18:42:04Z</time>
      </trkpt>
      <trkpt lat="45.33571" lon="5.18053">
        <ele>307</ele>
        <time>2018-03-29T18:43:04Z</time>
      </trkpt>
      <trkpt lat="45.33574" lon="5.18067">
        <ele>307</ele>
        <time>2018-03-29T18:44:04Z</time>
      </trkpt>
      <trkpt lat="45.33587" lon="5.18082">
        <ele>307</ele>
        <time>2018-03-29T18:45:04Z</time>
      </trkpt>
      <trkpt lat="45.33611" lon="5.18073">
        <ele>307</ele>
        <time>2018-03-29T18:47:04Z</time>
      </trkpt>
      <trkpt lat="45.33615" lon="5.18063">
        <ele>307</ele>
        <time>2018-03-29T18:48:04Z</time>
      </trkpt>
      <trkpt lat="45.33669" lon="5.181">
        <ele>307</ele>
        <time>2018-03-29T18:49:04Z</time>
      </trkpt>
      <trkpt lat="45.33799" lon="5.18182">
        <ele>307</ele>
        <time>2018-03-29T18:50:04Z</time>
      </trkpt>
      <trkpt lat="45.33958" lon="5.1828">
        <ele>309</ele>
        <time>2018-03-29T18:51:04Z</time>
      </trkpt>
      <trkpt lat="45.33977" lon="5.18289">
        <ele>310</ele>
        <time>2018-03-29T18:52:04Z</time>
      </trkpt>
      <trkpt lat="45.3399" lon="5.18414">
        <ele>311</ele>
        <time>2018-03-29T18:53:04Z</time>
      </trkpt>
      <trkpt lat="45.34042" lon="5.18382">
        <ele>310</ele>
        <time>2018-03-29T18:54:04Z</time>
      </trkpt>
      <trkpt lat="45.34109" lon="5.18347">
        <ele>310</ele>
        <time>2018-03-29T18:55:04Z</time>
      </trkpt>
      <trkpt lat="45.34209" lon="5.18291">
        <ele>310</ele>
        <time>2018-03-29T18:56:04Z</time>
      </trkpt>
      <trkpt lat="45.34254" lon="5.18241">
        <ele>311</ele>
        <time>2018-03-29T18:57:04Z</time>
      </trkpt>
      <trkpt lat="45.34262" lon="5.18235">
        <ele>311</ele>
        <time>2018-03-29T18:58:04Z</time>
      </trkpt>
      <trkpt lat="45.34284" lon="5.18231">
        <ele>312</ele>
        <time>2018-03-29T18:59:04Z</time>
      </trkpt>
      <trkpt lat="45.34446" lon="5.1825">
        <ele>313</ele>
        <time>2018-03-29T19:00:04Z</time>
      </trkpt>
      <trkpt lat="45.34511" lon="5.18261">
        <ele>313</ele>
        <time>2018-03-29T19:01:04Z</time>
      </trkpt>
      <trkpt lat="45.34689" lon="5.18434">
        <ele>313</ele>
        <time>2018-03-29T19:02:04Z</time>
      </trkpt>
      <trkpt lat="45.347" lon="5.18441">
        <ele>313</ele>
        <time>2018-03-29T19:03:04Z</time>
      </trkpt>
      <trkpt lat="45.34704" lon="5.18443">
        <ele>313</ele>
        <time>2018-03-29T19:05:04Z</time>
      </trkpt>
      <trkpt lat="45.3471" lon="5.18441">
        <ele>312</ele>
        <time>2018-03-29T19:06:04Z</time>
      </trkpt>
      <trkpt lat="45.34766" lon="5.18296">
        <ele>313</ele>
        <time>2018-03-29T19:07:04Z</time>
      </trkpt>
      <trkpt lat="45.3478" lon="5.1824">
        <ele>315</ele>
        <time>2018-03-29T19:08:04Z</time>
      </trkpt>
      <trkpt lat="45.34802" lon="5.18172">
        <ele>318</ele>
        <time>2018-03-29T19:09:04Z</time>
      </trkpt>
      <trkpt lat="45.3481" lon="5.18142">
        <ele>319</ele>
        <time>2018-03-29T19:10:04Z</time>
      </trkpt>
      <trkpt lat="45.34819" lon="5.18115">
        <ele>320</ele>
        <time>2018-03-29T19:11:04Z</time>
      </trkpt>
      <trkpt lat="45.34898" lon="5.18005">
        <ele>322</ele>
        <time>2018-03-29T19:12:04Z</time>
      </trkpt>
      <trkpt lat="45.35028" lon="5.17837">
        <ele>330</ele>
        <time>2018-03-29T19:13:04Z</time>
      </trkpt>
      <trkpt lat="45.35188" lon="5.17651">
        <ele>335</ele>
        <time>2018-03-29T19:14:04Z</time>
      </trkpt>
      <trkpt lat="45.35361" lon="5.17491">
        <ele>340</ele>
        <time>2018-03-29T19:15:04Z</time>
      </trkpt>
      <trkpt lat="45.35415" lon="5.17418">
        <ele>343</ele>
        <time>2018-03-29T19:16:04Z</time>
      </trkpt>
      <trkpt lat="45.35505" lon="5.17247">
        <ele>344</ele>
        <time>2018-03-29T19:17:04Z</time>
      </trkpt>
      <trkpt lat="45.35707" lon="5.16941">
        <ele>343</ele>
        <time>2018-03-29T19:18:04Z</time>
      </trkpt>
      <trkpt lat="45.3575" lon="5.16833">
        <ele>343</ele>
        <time>2018-03-29T19:19:04Z</time>
      </trkpt>
      <trkpt lat="45.35815" lon="5.16572">
        <ele>344</ele>
        <time>2018-03-29T19:20:04Z</time>
      </trkpt>
      <trkpt lat="45.35831" lon="5.1653">
        <ele>344</ele>
        <time>2018-03-29T19:21:04Z</time>
      </trkpt>
      <trkpt lat="45.35857" lon="5.1648">
        <ele>344</ele>
        <time>2018-03-29T19:22:04Z</time>
      </trkpt>
      <trkpt lat="45.36071" lon="5.16122">
        <ele>344</ele>
        <time>2018-03-29T19:23:04Z</time>
      </trkpt>
      <trkpt lat="45.36098" lon="5.16061">
        <ele>344</ele>
        <time>2018-03-29T19:24:04Z</time>
      </trkpt>
      <trkpt lat="45.36116" lon="5.15995">
        <ele>344</ele>
        <time>2018-03-29T19:25:04Z</time>
      </trkpt>
      <trkpt lat="45.36129" lon="5.1593">
        <ele>345</ele>
        <time>2018-03-29T19:26:04Z</time>
      </trkpt>
      <trkpt lat="45.36156" lon="5.15649">
        <ele>343</ele>
        <time>2018-03-29T19:27:04Z</time>
      </trkpt>
      <trkpt lat="45.36175" lon="5.15563">
        <ele>344</ele>
        <time>2018-03-29T19:28:04Z</time>
      </trkpt>
      <trkpt lat="45.36185" lon="5.15525">
        <ele>344</ele>
        <time>2018-03-29T19:29:04Z</time>
      </trkpt>
      <trkpt lat="45.36197" lon="5.15489">
        <ele>345</ele>
        <time>2018-03-29T19:30:04Z</time>
      </trkpt>
      <trkpt lat="45.36228" lon="5.15416">
        <ele>345</ele>
        <time>2018-03-29T19:31:04Z</time>
      </trkpt>
      <trkpt lat="45.3626" lon="5.15313">
        <ele>347</ele>
        <time>2018-03-29T19:32:04Z</time>
      </trkpt>
      <trkpt lat="45.36274" lon="5.15277">
        <ele>348</ele>
        <time>2018-03-29T19:33:04Z</time>
      </trkpt>
      <trkpt lat="45.36298" lon="5.15234">
        <ele>350</ele>
        <time>2018-03-29T19:34:04Z</time>
      </trkpt>
      <trkpt lat="45.36383" lon="5.15114">
        <ele>354</ele>
        <time>2018-03-29T19:35:04Z</time>
      </trkpt>
      <trkpt lat="45.36444" lon="5.14984">
        <ele>357</ele>
        <time>2018-03-29T19:36:04Z</time>
      </trkpt>
      <trkpt lat="45.36497" lon="5.1476">
        <ele>361</ele>
        <time>2018-03-29T19:37:04Z</time>
      </trkpt>
      <trkpt lat="45.36494" lon="5.14691">
        <ele>362</ele>
        <time>2018-03-29T19:38:04Z</time>
      </trkpt>
      <trkpt lat="45.36473" lon="5.14553">
        <ele>363</ele>
        <time>2018-03-29T19:39:04Z</time>
      </trkpt>
      <trkpt lat="45.36477" lon="5.14377">
        <ele>362</ele>
        <time>2018-03-29T19:41:04Z</time>
      </trkpt>
      <trkpt lat="45.36423" lon="5.14268">
        <ele>360</ele>
        <time>2018-03-29T19:42:04Z</time>
      </trkpt>
      <trkpt lat="45.36432" lon="5.1423">
        <ele>362</ele>
        <time>2018-03-29T19:43:04Z</time>
      </trkpt>
      <trkpt lat="45.36446" lon="5.14146">
        <ele>365</ele>
        <time>2018-03-29T19:44:04Z</time>
      </trkpt>
      <trkpt lat="45.36447" lon="5.14109">
        <ele>366</ele>
        <time>2018-03-29T19:45:04Z</time>
      </trkpt>
      <trkpt lat="45.3652" lon="5.14">
        <ele>370</ele>
        <time>2018-03-29T19:46:04Z</time>
      </trkpt>
      <trkpt lat="45.3654" lon="5.13965">
        <ele>371</ele>
        <time>2018-03-29T19:47:04Z</time>
      </trkpt>
      <trkpt lat="45.36581" lon="5.13915">
        <ele>372</ele>
        <time>2018-03-29T19:48:04Z</time>
      </trkpt>
      <trkpt lat="45.36615" lon="5.13881">
        <ele>370</ele>
        <time>2018-03-29T19:49:04Z</time>
      </trkpt>
      <trkpt lat="45.36654" lon="5.13863">
        <ele>369</ele>
        <time>2018-03-29T19:50:04Z</time>
      </trkpt>
      <trkpt lat="45.36669" lon="5.13852">
        <ele>368</ele>
        <time>2018-03-29T19:51:04Z</time>
      </trkpt>
      <trkpt lat="45.36657" lon="5.13742">
        <ele>366</ele>
        <time>2018-03-29T19:52:04Z</time>
      </trkpt>
      <trkpt lat="45.36653" lon="5.13671">
        <ele>365</ele>
        <time>2018-03-29T19:53:04Z</time>
      </trkpt>
      <trkpt lat="45.36654" lon="5.13622">
        <ele>364</ele>
        <time>2018-03-29T19:54:04Z</time>
      </trkpt>
      <trkpt lat="45.36647" lon="5.1355">
        <ele>364</ele>
        <time>2018-03-29T19:55:04Z</time>
      </trkpt>
      <trkpt lat="45.3663" lon="5.13458">
        <ele>364</ele>
        <time>2018-03-29T19:56:04Z</time>
      </trkpt>
      <trkpt lat="45.36644" lon="5.13347">
        <ele>361</ele>
        <time>2018-03-29T19:57:04Z</time>
      </trkpt>
      <trkpt lat="45.36636" lon="5.1329">
        <ele>360</ele>
        <time>2018-03-29T19:58:04Z</time>
      </trkpt>
      <trkpt lat="45.36617" lon="5.13212">
        <ele>359</ele>
        <time>2018-03-29T19:59:04Z</time>
      </trkpt>
      <trkpt lat="45.36574" lon="5.13135">
        <ele>358</ele>
        <time>2018-03-29T20:00:04Z</time>
      </trkpt>
      <trkpt lat="45.36561" lon="5.13106">
        <ele>358</ele>
        <time>2018-03-29T20:01:04Z</time>
      </trkpt>
      <trkpt lat="45.36559" lon="5.13089">
        <ele>357</ele>
        <time>2018-03-29T20:02:04Z</time>
      </trkpt>
      <trkpt lat="45.36557" lon="5.13029">
        <ele>356</ele>
        <time>2018-03-29T20:03:04Z</time>
      </trkpt>
      <trkpt lat="45.36572" lon="5.12919">
        <ele>353</ele>
        <time>2018-03-29T20:04:04Z</time>
      </trkpt>
      <trkpt lat="45.3656" lon="5.12812">
        <ele>349</ele>
        <time>2018-03-29T20:05:04Z</time>
      </trkpt>
      <trkpt lat="45.36554" lon="5.12765">
        <ele>347</ele>
        <time>2018-03-29T20:07:04Z</time>
      </trkpt>
      <trkpt lat="45.36557" lon="5.12727">
        <ele>346</ele>
        <time>2018-03-29T20:08:04Z</time>
      </trkpt>
      <trkpt lat="45.36592" lon="5.12676">
        <ele>346</ele>
        <time>2018-03-29T20:09:04Z</time>
      </trkpt>
      <trkpt lat="45.36599" lon="5.12643">
        <ele>345</ele>
        <time>2018-03-29T20:10:04Z</time>
      </trkpt>
      <trkpt lat="45.36589" lon="5.12572">
        <ele>341</ele>
        <time>2018-03-29T20:11:04Z</time>
      </trkpt>
      <trkpt lat="45.36612" lon="5.1255">
        <ele>341</ele>
        <time>2018-03-29T20:12:04Z</time>
      </trkpt>
      <trkpt lat="45.36771" lon="5.1246">
        <ele>345</ele>
        <time>2018-03-29T20:13:04Z</time>
      </trkpt>
      <trkpt lat="45.36924" lon="5.12328">
        <ele>340</ele>
        <time>2018-03-29T20:14:04Z</time>
      </trkpt>
      <trkpt lat="45.36943" lon="5.123">
        <ele>339</ele>
        <time>2018-03-29T20:15:04Z</time>
      </trkpt>
      <trkpt lat="45.37034" lon="5.12357">
        <ele>342</ele>
        <time>2018-03-29T20:16:04Z</time>
      </trkpt>
      <trkpt lat="45.37129" lon="5.12394">
        <ele>345</ele>
        <time>2018-03-29T20:17:04Z</time>
      </trkpt>
      <trkpt lat="45.37241" lon="5.12431">
        <ele>344</ele>
        <time>2018-03-29T20:18:04Z</time>
      </trkpt>
      <trkpt lat="45.37301" lon="5.12498">
        <ele>344</ele>
        <time>2018-03-29T20:19:04Z</time>
      </trkpt>
      <trkpt lat="45.37345" lon="5.12583">
        <ele>344</ele>
        <time>2018-03-29T20:20:04Z</time>
      </trkpt>
      <trkpt lat="45.37493" lon="5.12751">
        <ele>347</ele>
        <time>2018-03-29T20:21:04Z</time>
      </trkpt>
      <trkpt lat="45.37581" lon="5.12864">
        <ele>347</ele>
        <time>2018-03-29T20:22:04Z</time>
      </trkpt>
      <trkpt lat="45.37635" lon="5.12914">
        <ele>347</ele>
        <time>2018-03-29T20:23:04Z</time>
      </trkpt>
      <trkpt lat="45.37734" lon="5.1306">
        <ele>349</ele>
        <time>2018-03-29T20:24:04Z</time>
      </trkpt>
      <trkpt lat="45.37799" lon="5.13147">
        <ele>350</ele>
        <time>2018-03-29T20:25:04Z</time>
      </trkpt>
      <trkpt lat="45.37833" lon="5.13172">
        <ele>350</ele>
        <time>2018-03-29T20:26:04Z</time>
      </trkpt>
      <trkpt lat="45.37884" lon="5.13205">
        <ele>351</ele>
        <time>2018-03-29T20:27:04Z</time>
      </trkpt>
      <trkpt lat="45.37904" lon="5.13189">
        <ele>352</ele>
        <time>2018-03-29T20:28:04Z</time>
      </trkpt>
      <trkpt lat="45.37963" lon="5.13147">
        <ele>352</ele>
        <time>2018-03-29T20:29:04Z</time>
      </trkpt>
      <trkpt lat="45.38011" lon="5.13126">
        <ele>352</ele>
        <time>2018-03-29T20:30:04Z</time>
      </trkpt>
      <trkpt lat="45.38058" lon="5.13111">
        <ele>352</ele>
        <time>2018-03-29T20:31:04Z</time>
      </trkpt>
      <trkpt lat="45.38086" lon="5.13101">
        <ele>352</ele>
        <time>2018-03-29T20:33:04Z</time>
      </trkpt>
      <trkpt lat="45.38127" lon="5.13091">
        <ele>352</ele>
        <time>2018-03-29T20:34:04Z</time>
      </trkpt>
      <trkpt lat="45.38156" lon="5.13071">
        <ele>353</ele>
        <time>2018-03-29T20:35:04Z</time>
      </trkpt>
      <trkpt lat="45.38242" lon="5.12962">
        <ele>351</ele>
        <time>2018-03-29T20:36:04Z</time>
      </trkpt>
      <trkpt lat="45.38264" lon="5.12937">
        <ele>350</ele>
        <time>2018-03-29T20:37:04Z</time>
      </trkpt>
      <trkpt lat="45.38312" lon="5.12872">
        <ele>350</ele>
        <time>2018-03-29T20:38:04Z</time>
      </trkpt>
      <trkpt lat="45.38353" lon="5.12853">
        <ele>351</ele>
        <time>2018-03-29T20:39:04Z</time>
      </trkpt>
      <trkpt lat="45.38447" lon="5.1279">
        <ele>351</ele>
        <time>2018-03-29T20:40:04Z</time>
      </trkpt>
      <trkpt lat="45.38466" lon="5.12783">
        <ele>351</ele>
        <time>2018-03-29T20:41:04Z</time>
      </trkpt>
      <trkpt lat="45.38531" lon="5.12767">
        <ele>351</ele>
        <time>2018-03-29T20:42:04Z</time>
      </trkpt>
      <trkpt lat="45.38583" lon="5.12751">
        <ele>351</ele>
        <time>2018-03-29T20:43:04Z</time>
      </trkpt>
      <trkpt lat="45.38602" lon="5.12747">
        <ele>351</ele>
        <time>2018-03-29T20:44:04Z</time>
      </trkpt>
      <trkpt lat="45.38622" lon="5.12735">
        <ele>351</ele>
        <time>2018-03-29T20:45:04Z</time>
      </trkpt>
      <trkpt lat="45.38641" lon="5.12721">
        <ele>352</ele>
        <time>2018-03-29T20:46:04Z</time>
      </trkpt>
      <trkpt lat="45.38685" lon="5.12668">
        <ele>352</ele>
        <time>2018-03-29T20:47:04Z</time>
      </trkpt>
      <trkpt lat="45.3874" lon="5.12607">
        <ele>353</ele>
        <time>2018-03-29T20:48:04Z</time>
      </trkpt>
      <trkpt lat="45.3877" lon="5.12565">
        <ele>353</ele>
        <time>2018-03-29T20:49:04Z</time>
      </trkpt>
      <trkpt lat="45.38798" lon="5.12527">
        <ele>353</ele>
        <time>2018-03-29T20:50:04Z</time>
      </trkpt>
      <trkpt lat="45.38808" lon="5.12496">
        <ele>353</ele>
        <time>2018-03-29T20:51:04Z</time>
      </trkpt>
      <trkpt lat="45.38824" lon="5.12426">
        <ele>353</ele>
        <time>2018-03-29T20:52:04Z</time>
      </trkpt>
      <trkpt lat="45.38852" lon="5.12376">
        <ele>353</ele>
        <time>2018-03-29T20:53:04Z</time>
      </trkpt>
      <trkpt lat="45.38879" lon="5.12333">
        <ele>354</ele>
        <time>2018-03-29T20:54:04Z</time>
      </trkpt>
      <trkpt lat="45.38912" lon="5.12284">
        <ele>351</ele>
        <time>2018-03-29T20:55:04Z</time>
      </trkpt>
      <trkpt lat="45.38923" lon="5.12256">
        <ele>349</ele>
        <time>2018-03-29T20:56:04Z</time>
      </trkpt>
      <trkpt lat="45.389" lon="5.12216">
        <ele>346</ele>
        <time>2018-03-29T20:57:04Z</time>
      </trkpt>
      <trkpt lat="45.38891" lon="5.12192">
        <ele>345</ele>
        <time>2018-03-29T20:58:04Z</time>
      </trkpt>
      <trkpt lat="45.38899" lon="5.12112">
        <ele>344</ele>
        <time>2018-03-29T20:59:04Z</time>
      </trkpt>
      <trkpt lat="45.38895" lon="5.1205">
        <ele>346</ele>
        <time>2018-03-29T21:00:04Z</time>
      </trkpt>
      <trkpt lat="45.38904" lon="5.12026">
        <ele>349</ele>
        <time>2018-03-29T21:01:04Z</time>
      </trkpt>
      <trkpt lat="45.3891" lon="5.12014">
        <ele>350</ele>
        <time>2018-03-29T21:03:04Z</time>
      </trkpt>
      <trkpt lat="45.38926" lon="5.11998">
        <ele>353</ele>
        <time>2018-03-29T21:04:04Z</time>
      </trkpt>
      <trkpt lat="45.38917" lon="5.11978">
        <ele>353</ele>
        <time>2018-03-29T21:05:04Z</time>
      </trkpt>
      <trkpt lat="45.38883" lon="5.11943">
        <ele>352</ele>
        <time>2018-03-29T21:06:04Z</time>
      </trkpt>
      <trkpt lat="45.38826" lon="5.11867">
        <ele>351</ele>
        <time>2018-03-29T21:07:04Z</time>
      </trkpt>
      <trkpt lat="45.38798" lon="5.11827">
        <ele>352</ele>
        <time>2018-03-29T21:08:04Z</time>
      </trkpt>
      <trkpt lat="45.38832" lon="5.11782">
        <ele>356</ele>
        <time>2018-03-29T21:09:04Z</time>
      </trkpt>
      <trkpt lat="45.38838" lon="5.11772">
        <ele>357</ele>
        <time>2018-03-29T21:10:04Z</time>
      </trkpt>
      <trkpt lat="45.38842" lon="5.11757">
        <ele>358</ele>
        <time>2018-03-29T21:11:04Z</time>
      </trkpt>
      <trkpt lat="45.38841" lon="5.11742">
        <ele>359</ele>
        <time>2018-03-29T21:12:04Z</time>
      </trkpt>
      <trkpt lat="45.38823" lon="5.11569">
        <ele>366</ele>
        <time>2018-03-29T21:13:04Z</time>
      </trkpt>
      <trkpt lat="45.3882" lon="5.1156">
        <ele>366</ele>
        <time>2018-03-29T21:14:04Z</time>
      </trkpt>
      <trkpt lat="45.38802" lon="5.11521">
        <ele>368</ele>
        <time>2018-03-29T21:15:04Z</time>
      </trkpt>
      <trkpt lat="45.38758" lon="5.11392">
        <ele>370</ele>
        <time>2018-03-29T21:16:04Z</time>
      </trkpt>
      <trkpt lat="45.38735" lon="5.11332">
        <ele>372</ele>
        <time>2018-03-29T21:17:04Z</time>
      </trkpt>
      <trkpt lat="45.38715" lon="5.11296">
        <ele>372</ele>
        <time>2018-03-29T21:18:04Z</time>
      </trkpt>
      <trkpt lat="45.38679" lon="5.11244">
        <ele>374</ele>
        <time>2018-03-29T21:19:04Z</time>
      </trkpt>
      <trkpt lat="45.38671" lon="5.11229">
        <ele>374</ele>
        <time>2018-03-29T21:20:04Z</time>
      </trkpt>
      <trkpt lat="45.38663" lon="5.11207">
        <ele>374</ele>
        <time>2018-03-29T21:21:04Z</time>
      </trkpt>
      <trkpt lat="45.3866" lon="5.11188">
        <ele>374</ele>
        <time>2018-03-29T21:22:04Z</time>
      </trkpt>
      <trkpt lat="45.38659" lon="5.11177">
        <ele>375</ele>
        <time>2018-03-29T21:23:04Z</time>
      </trkpt>
      <trkpt lat="45.38661" lon="5.1115">
        <ele>376</ele>
        <time>2018-03-29T21:24:04Z</time>
      </trkpt>
      <trkpt lat="45.38665" lon="5.11118">
        <ele>377</ele>
        <time>2018-03-29T21:25:04Z</time>
      </trkpt>
      <trkpt lat="45.38663" lon="5.11095">
        <ele>377</ele>
        <time>2018-03-29T21:27:04Z</time>
      </trkpt>
      <trkpt lat="45.38656" lon="5.11079">
        <ele>377</ele>
        <time>2018-03-29T21:28:04Z</time>
      </trkpt>
      <trkpt lat="45.38649" lon="5.11059">
        <ele>378</ele>
        <time>2018-03-29T21:29:04Z</time>
      </trkpt>
      <trkpt lat="45.38644" lon="5.11024">
        <ele>379</ele>
        <time>2018-03-29T21:30:04Z</time>
      </trkpt>
      <trkpt lat="45.38635" lon="5.10987">
        <ele>380</ele>
        <time>2018-03-29T21:32:04Z</time>
      </trkpt>
      <trkpt lat="45.38636" lon="5.10948">
        <ele>381</ele>
        <time>2018-03-29T21:33:04Z</time>
      </trkpt>
      <trkpt lat="45.38684" lon="5.10793">
        <ele>383</ele>
        <time>2018-03-29T21:34:04Z</time>
      </trkpt>
      <trkpt lat="45.38696" lon="5.10741">
        <ele>383</ele>
        <time>2018-03-29T21:35:04Z</time>
      </trkpt>
      <trkpt lat="45.38697" lon="5.10685">
        <ele>384</ele>
        <time>2018-03-29T21:36:04Z</time>
      </trkpt>
      <trkpt lat="45.38695" lon="5.10626">
        <ele>383</ele>
        <time>2018-03-29T21:37:04Z</time>
      </trkpt>
      <trkpt lat="45.38706" lon="5.10521">
        <ele>384</ele>
        <time>2018-03-29T21:38:04Z</time>
      </trkpt>
      <trkpt lat="45.38771" lon="5.10211">
        <ele>391</ele>
        <time>2018-03-29T21:39:04Z</time>
      </trkpt>
      <trkpt lat="45.38831" lon="5.0992">
        <ele>394</ele>
        <time>2018-03-29T21:41:04Z</time>
      </trkpt>
      <trkpt lat="45.38811" lon="5.09704">
        <ele>397</ele>
        <time>2018-03-29T21:43:04Z</time>
      </trkpt>
      <trkpt lat="45.38801" lon="5.09633">
        <ele>398</ele>
        <time>2018-03-29T21:44:04Z</time>
      </trkpt>
      <trkpt lat="45.38799" lon="5.09571">
        <ele>400</ele>
        <time>2018-03-29T21:45:04Z</time>
      </trkpt>
      <trkpt lat="45.38795" lon="5.0955">
        <ele>400</ele>
        <time>2018-03-29T21:46:04Z</time>
      </trkpt>
      <trkpt lat="45.38782" lon="5.09511">
        <ele>400</ele>
        <time>2018-03-29T21:47:04Z</time>
      </trkpt>
      <trkpt lat="45.38774" lon="5.09481">
        <ele>401</ele>
        <time>2018-03-29T21:48:04Z</time>
      </trkpt>
      <trkpt lat="45.38751" lon="5.09357">
        <ele>406</ele>
        <time>2018-03-29T21:49:04Z</time>
      </trkpt>
      <trkpt lat="45.38739" lon="5.09331">
        <ele>405</ele>
        <time>2018-03-29T21:50:04Z</time>
      </trkpt>
      <trkpt lat="45.3873" lon="5.09309">
        <ele>405</ele>
        <time>2018-03-29T21:51:04Z</time>
      </trkpt>
      <trkpt lat="45.38724" lon="5.09284">
        <ele>405</ele>
        <time>2018-03-29T21:52:04Z</time>
      </trkpt>
      <trkpt lat="45.38711" lon="5.09202">
        <ele>405</ele>
        <time>2018-03-29T21:53:04Z</time>
      </trkpt>
      <trkpt lat="45.38708" lon="5.09174">
        <ele>406</ele>
        <time>2018-03-29T21:54:04Z</time>
      </trkpt>
      <trkpt lat="45.38707" lon="5.09109">
        <ele>405</ele>
        <time>2018-03-29T21:55:04Z</time>
      </trkpt>
      <trkpt lat="45.38709" lon="5.08725">
        <ele>394</ele>
        <time>2018-03-29T21:56:04Z</time>
      </trkpt>
      <trkpt lat="45.38724" lon="5.08245">
        <ele>393</ele>
        <time>2018-03-29T21:58:04Z</time>
      </trkpt>
      <trkpt lat="45.38725" lon="5.08216">
        <ele>394</ele>
        <time>2018-03-29T21:59:04Z</time>
      </trkpt>
      <trkpt lat="45.38722" lon="5.0815">
        <ele>394</ele>
        <time>2018-03-29T22:00:04Z</time>
      </trkpt>
      <trkpt lat="45.38713" lon="5.08028">
        <ele>398</ele>
        <time>2018-03-29T22:01:04Z</time>
      </trkpt>
      <trkpt lat="45.38712" lon="5.07967">
        <ele>398</ele>
        <time>2018-03-29T22:02:04Z</time>
      </trkpt>
      <trkpt lat="45.38731" lon="5.07762">
        <ele>403</ele>
        <time>2018-03-29T22:03:04Z</time>
      </trkpt>
      <trkpt lat="45.38756" lon="5.07567">
        <ele>409</ele>
        <time>2018-03-29T22:04:04Z</time>
      </trkpt>
      <trkpt lat="45.38758" lon="5.07522">
        <ele>409</ele>
        <time>2018-03-29T22:05:04Z</time>
      </trkpt>
      <trkpt lat="45.38754" lon="5.0741">
        <ele>409</ele>
        <time>2018-03-29T22:06:04Z</time>
      </trkpt>
      <trkpt lat="45.38744" lon="5.07223">
        <ele>415</ele>
        <time>2018-03-29T22:07:04Z</time>
      </trkpt>
      <trkpt lat="45.38733" lon="5.07069">
        <ele>411</ele>
        <time>2018-03-29T22:08:04Z</time>
      </trkpt>
      <trkpt lat="45.38722" lon="5.06793">
        <ele>407</ele>
        <time>2018-03-29T22:09:04Z</time>
      </trkpt>
      <trkpt lat="45.38697" lon="5.06542">
        <ele>407</ele>
        <time>2018-03-29T22:10:04Z</time>
      </trkpt>
      <trkpt lat="45.3868" lon="5.0635">
        <ele>409</ele>
        <time>2018-03-29T22:11:04Z</time>
      </trkpt>
      <trkpt lat="45.38679" lon="5.06329">
        <ele>410</ele>
        <time>2018-03-29T22:12:04Z</time>
      </trkpt>
      <trkpt lat="45.38666" lon="5.06197">
        <ele>412</ele>
        <time>2018-03-29T22:13:04Z</time>
      </trkpt>
      <trkpt lat="45.3867" lon="5.06166">
        <ele>414</ele>
        <time>2018-03-29T22:14:04Z</time>
      </trkpt>
      <trkpt lat="45.38668" lon="5.06144">
        <ele>415</ele>
        <time>2018-03-29T22:15:04Z</time>
      </trkpt>
      <trkpt lat="45.38614" lon="5.05854">
        <ele>417</ele>
        <time>2018-03-29T22:16:04Z</time>
      </trkpt>
      <trkpt lat="45.38608" lon="5.05804">
        <ele>418</ele>
        <time>2018-03-29T22:17:04Z</time>
      </trkpt>
      <trkpt lat="45.38611" lon="5.05766">
        <ele>419</ele>
        <time>2018-03-29T22:18:04Z</time>
      </trkpt>
      <trkpt lat="45.38619" lon="5.05703">
        <ele>420</ele>
        <time>2018-03-29T22:19:04Z</time>
      </trkpt>
      <trkpt lat="45.38634" lon="5.05634">
        <ele>422</ele>
        <time>2018-03-29T22:20:04Z</time>
      </trkpt>
      <trkpt lat="45.38638" lon="5.0561">
        <ele>423</ele>
        <time>2018-03-29T22:21:04Z</time>
      </trkpt>
      <trkpt lat="45.38636" lon="5.05501">
        <ele>425</ele>
        <time>2018-03-29T22:23:04Z</time>
      </trkpt>
      <trkpt lat="45.38627" lon="5.05393">
        <ele>423</ele>
        <time>2018-03-29T22:24:04Z</time>
      </trkpt>
      <trkpt lat="45.38616" lon="5.05303">
        <ele>423</ele>
        <time>2018-03-29T22:25:04Z</time>
      </trkpt>
      <trkpt lat="45.38582" lon="5.0509">
        <ele>421</ele>
        <time>2018-03-29T22:26:04Z</time>
      </trkpt>
      <trkpt lat="45.38551" lon="5.04945">
        <ele>422</ele>
        <time>2018-03-29T22:27:04Z</time>
      </trkpt>
      <trkpt lat="45.38543" lon="5.04895">
        <ele>421</ele>
        <time>2018-03-29T22:28:04Z</time>
      </trkpt>
      <trkpt lat="45.38538" lon="5.0488">
        <ele>420</ele>
        <time>2018-03-29T22:29:04Z</time>
      </trkpt>
      <trkpt lat="45.38524" lon="5.04853">
        <ele>418</ele>
        <time>2018-03-29T22:30:04Z</time>
      </trkpt>
      <trkpt lat="45.38516" lon="5.04833">
        <ele>417</ele>
        <time>2018-03-29T22:31:04Z</time>
      </trkpt>
      <trkpt lat="45.38509" lon="5.0481">
        <ele>416</ele>
        <time>2018-03-29T22:32:04Z</time>
      </trkpt>
      <trkpt lat="45.38501" lon="5.04757">
        <ele>414</ele>
        <time>2018-03-29T22:33:04Z</time>
      </trkpt>
      <trkpt lat="45.38488" lon="5.04719">
        <ele>414</ele>
        <time>2018-03-29T22:34:04Z</time>
      </trkpt>
      <trkpt lat="45.38478" lon="5.047">
        <ele>414</ele>
        <time>2018-03-29T22:35:04Z</time>
      </trkpt>
      <trkpt lat="45.38447" lon="5.04627">
        <ele>413</ele>
        <time>2018-03-29T22:36:04Z</time>
      </trkpt>
      <trkpt lat="45.38407" lon="5.04481">
        <ele>408</ele>
        <time>2018-03-29T22:37:04Z</time>
      </trkpt>
      <trkpt lat="45.38395" lon="5.04444">
        <ele>406</ele>
        <time>2018-03-29T22:38:04Z</time>
      </trkpt>
      <trkpt lat="45.38388" lon="5.04428">
        <ele>405</ele>
        <time>2018-03-29T22:39:04Z</time>
      </trkpt>
      <trkpt lat="45.38379" lon="5.04387">
        <ele>403</ele>
        <time>2018-03-29T22:40:04Z</time>
      </trkpt>
      <trkpt lat="45.38374" lon="5.04316">
        <ele>402</ele>
        <time>2018-03-29T22:41:04Z</time>
      </trkpt>
      <trkpt lat="45.38367" lon="5.04138">
        <ele>400</ele>
        <time>2018-03-29T22:42:04Z</time>
      </trkpt>
      <trkpt lat="45.38366" lon="5.03991">
        <ele>400</ele>
        <time>2018-03-29T22:43:04Z</time>
      </trkpt>
      <trkpt lat="45.38367" lon="5.03974">
        <ele>400</ele>
        <time>2018-03-29T22:44:04Z</time>
      </trkpt>
      <trkpt lat="45.38383" lon="5.03906">
        <ele>402</ele>
        <time>2018-03-29T22:45:04Z</time>
      </trkpt>
      <trkpt lat="45.38368" lon="5.03893">
        <ele>400</ele>
        <time>2018-03-29T22:46:04Z</time>
      </trkpt>
      <trkpt lat="45.38355" lon="5.03887">
        <ele>398</ele>
        <time>2018-03-29T22:47:04Z</time>
      </trkpt>
      <trkpt lat="45.3838" lon="5.03741">
        <ele>398</ele>
        <time>2018-03-29T22:48:04Z</time>
      </trkpt>
      <trkpt lat="45.38388" lon="5.0363">
        <ele>399</ele>
        <time>2018-03-29T22:49:04Z</time>
      </trkpt>
      <trkpt lat="45.38411" lon="5.03503">
        <ele>397</ele>
        <time>2018-03-29T22:51:04Z</time>
      </trkpt>
      <trkpt lat="45.38412" lon="5.03476">
        <ele>396</ele>
        <time>2018-03-29T22:52:04Z</time>
      </trkpt>
      <trkpt lat="45.38408" lon="5.03419">
        <ele>395</ele>
        <time>2018-03-29T22:53:04Z</time>
      </trkpt>
      <trkpt lat="45.38387" lon="5.03311">
        <ele>387</ele>
        <time>2018-03-29T22:54:04Z</time>
      </trkpt>
      <trkpt lat="45.3839" lon="5.03299">
        <ele>386</ele>
        <time>2018-03-29T22:55:04Z</time>
      </trkpt>
      <trkpt lat="45.38398" lon="5.03283">
        <ele>384</ele>
        <time>2018-03-29T22:56:04Z</time>
      </trkpt>
      <trkpt lat="45.38406" lon="5.03276">
        <ele>383</ele>
        <time>2018-03-29T22:57:04Z</time>
      </trkpt>
      <trkpt lat="45.38418" lon="5.03275">
        <ele>383</ele>
        <time>2018-03-29T22:58:04Z</time>
      </trkpt>
      <trkpt lat="45.3843" lon="5.0328">
        <ele>382</ele>
        <time>2018-03-29T22:59:04Z</time>
      </trkpt>
      <trkpt lat="45.38455" lon="5.03309">
        <ele>381</ele>
        <time>2018-03-29T23:00:04Z</time>
      </trkpt>
      <trkpt lat="45.38525" lon="5.03377">
        <ele>378</ele>
        <time>2018-03-29T23:01:04Z</time>
      </trkpt>
      <trkpt lat="45.38543" lon="5.03396">
        <ele>377</ele>
        <time>2018-03-29T23:03:04Z</time>
      </trkpt>
      <trkpt lat="45.38562" lon="5.03404">
        <ele>375</ele>
        <time>2018-03-29T23:04:04Z</time>
      </trkpt>
      <trkpt lat="45.38615" lon="5.03411">
        <ele>369</ele>
        <time>2018-03-29T23:05:04Z</time>
      </trkpt>
      <trkpt lat="45.38627" lon="5.03419">
        <ele>368</ele>
        <time>2018-03-29T23:06:04Z</time>
      </trkpt>
      <trkpt lat="45.38664" lon="5.0348">
        <ele>368</ele>
        <time>2018-03-29T23:07:04Z</time>
      </trkpt>
      <trkpt lat="45.38684" lon="5.03502">
        <ele>366</ele>
        <time>2018-03-29T23:08:04Z</time>
      </trkpt>
      <trkpt lat="45.38696" lon="5.03508">
        <ele>364</ele>
        <time>2018-03-29T23:09:04Z</time>
      </trkpt>
      <trkpt lat="45.38721" lon="5.03509">
        <ele>359</ele>
        <time>2018-03-29T23:10:04Z</time>
      </trkpt>
      <trkpt lat="45.38742" lon="5.03513">
        <ele>356</ele>
        <time>2018-03-29T23:11:04Z</time>
      </trkpt>
      <trkpt lat="45.38779" lon="5.03527">
        <ele>351</ele>
        <time>2018-03-29T23:12:04Z</time>
      </trkpt>
      <trkpt lat="45.38792" lon="5.03535">
        <ele>350</ele>
        <time>2018-03-29T23:13:04Z</time>
      </trkpt>
      <trkpt lat="45.38822" lon="5.03567">
        <ele>350</ele>
        <time>2018-03-29T23:14:04Z</time>
      </trkpt>
      <trkpt lat="45.3887" lon="5.03641">
        <ele>349</ele>
        <time>2018-03-29T23:15:04Z</time>
      </trkpt>
      <trkpt lat="45.38901" lon="5.03683">
        <ele>347</ele>
        <time>2018-03-29T23:16:04Z</time>
      </trkpt>
      <trkpt lat="45.38918" lon="5.03699">
        <ele>346</ele>
        <time>2018-03-29T23:17:04Z</time>
      </trkpt>
      <trkpt lat="45.3894" lon="5.03708">
        <ele>345</ele>
        <time>2018-03-29T23:18:04Z</time>
      </trkpt>
      <trkpt lat="45.38965" lon="5.03716">
        <ele>343</ele>
        <time>2018-03-29T23:19:04Z</time>
      </trkpt>
      <trkpt lat="45.39004" lon="5.03703">
        <ele>339</ele>
        <time>2018-03-29T23:20:04Z</time>
      </trkpt>
      <trkpt lat="45.39054" lon="5.03667">
        <ele>337</ele>
        <time>2018-03-29T23:21:04Z</time>
      </trkpt>
      <trkpt lat="45.39123" lon="5.03596">
        <ele>338</ele>
        <time>2018-03-29T23:23:04Z</time>
      </trkpt>
      <trkpt lat="45.39083" lon="5.03513">
        <ele>337</ele>
        <time>2018-03-29T23:24:04Z</time>
      </trkpt>
      <trkpt lat="45.39046" lon="5.03431">
        <ele>335</ele>
        <time>2018-03-29T23:25:04Z</time>
      </trkpt>
      <trkpt lat="45.38828" lon="5.02937">
        <ele>332</ele>
        <time>2018-03-29T23:26:04Z</time>
      </trkpt>
      <trkpt lat="45.38667" lon="5.02567">
        <ele>327</ele>
        <time>2018-03-29T23:27:04Z</time>
      </trkpt>
      <trkpt lat="45.3863" lon="5.02488">
        <ele>326</ele>
        <time>2018-03-29T23:28:04Z</time>
      </trkpt>
      <trkpt lat="45.38602" lon="5.02452">
        <ele>325</ele>
        <time>2018-03-29T23:29:04Z</time>
      </trkpt>
      <trkpt lat="45.38584" lon="5.02432">
        <ele>324</ele>
        <time>2018-03-29T23:30:04Z</time>
      </trkpt>
      <trkpt lat="45.38577" lon="5.02418">
        <ele>324</ele>
        <time>2018-03-29T23:31:04Z</time>
      </trkpt>
      <trkpt lat="45.38575" lon="5.024">
        <ele>324</ele>
        <time>2018-03-29T23:32:04Z</time>
      </trkpt>
      <trkpt lat="45.38579" lon="5.0239">
        <ele>324</ele>
        <time>2018-03-29T23:33:04Z</time>
      </trkpt>
      <trkpt lat="45.38576" lon="5.02371">
        <ele>323</ele>
        <time>2018-03-29T23:35:04Z</time>
      </trkpt>
      <trkpt lat="45.3857" lon="5.02366">
        <ele>323</ele>
        <time>2018-03-29T23:36:04Z</time>
      </trkpt>
      <trkpt lat="45.38562" lon="5.02353">
        <ele>323</ele>
        <time>2018-03-29T23:37:04Z</time>
      </trkpt>
      <trkpt lat="45.38557" lon="5.02327">
        <ele>323</ele>
        <time>2018-03-29T23:38:04Z</time>
      </trkpt>
      <trkpt lat="45.38542" lon="5.02284">
        <ele>322</ele>
        <time>2018-03-29T23:39:04Z</time>
      </trkpt>
      <trkpt lat="45.38436" lon="5.02029">
        <ele>318</ele>
        <time>2018-03-29T23:40:04Z</time>
      </trkpt>
      <trkpt lat="45.38261" lon="5.0163">
        <ele>320</ele>
        <time>2018-03-29T23:41:04Z</time>
      </trkpt>
      <trkpt lat="45.38122" lon="5.01189">
        <ele>321</ele>
        <time>2018-03-29T23:42:04Z</time>
      </trkpt>
      <trkpt lat="45.38044" lon="5.00922">
        <ele>321</ele>
        <time>2018-03-29T23:43:04Z</time>
      </trkpt>
      <trkpt lat="45.37984" lon="5.0073">
        <ele>319</ele>
        <time>2018-03-29T23:44:04Z</time>
      </trkpt>
      <trkpt lat="45.37898" lon="5.0044">
        <ele>312</ele>
        <time>2018-03-29T23:45:04Z</time>
      </trkpt>
      <trkpt lat="45.37889" lon="5.0038">
        <ele>311</ele>
        <time>2018-03-29T23:46:04Z</time>
      </trkpt>
      <trkpt lat="45.37832" lon="4.99882">
        <ele>312</ele>
        <time>2018-03-29T23:47:04Z</time>
      </trkpt>
      <trkpt lat="45.37859" lon="4.99665">
        <ele>313</ele>
        <time>2018-03-29T23:48:04Z</time>
      </trkpt>
      <trkpt lat="45.37874" lon="4.99571">
        <ele>313</ele>
        <time>2018-03-29T23:49:04Z</time>
      </trkpt>
      <trkpt lat="45.37896" lon="4.99296">
        <ele>313</ele>
        <time>2018-03-29T23:50:04Z</time>
      </trkpt>
      <trkpt lat="45.37897" lon="4.99099">
        <ele>313</ele>
        <time>2018-03-29T23:51:04Z</time>
      </trkpt>
      <trkpt lat="45.37839" lon="4.98408">
        <ele>322</ele>
        <time>2018-03-29T23:52:04Z</time>
      </trkpt>
      <trkpt lat="45.37843" lon="4.9837">
        <ele>322</ele>
        <time>2018-03-29T23:53:04Z</time>
      </trkpt>
      <trkpt lat="45.37873" lon="4.98309">
        <ele>323</ele>
        <time>2018-03-29T23:54:04Z</time>
      </trkpt>
      <trkpt lat="45.37906" lon="4.98222">
        <ele>326</ele>
        <time>2018-03-29T23:55:04Z</time>
      </trkpt>
      <trkpt lat="45.37919" lon="4.98183">
        <ele>327</ele>
        <time>2018-03-29T23:56:04Z</time>
      </trkpt>
      <trkpt lat="45.37926" lon="4.98143">
        <ele>327</ele>
        <time>2018-03-29T23:57:04Z</time>
      </trkpt>
      <trkpt lat="45.37924" lon="4.98076">
        <ele>325</ele>
        <time>2018-03-29T23:58:04Z</time>
      </trkpt>
      <trkpt lat="45.37876" lon="4.97777">
        <ele>323</ele>
        <time>2018-03-29T23:59:04Z</time>
      </trkpt>
      <trkpt lat="45.37855" lon="4.97549">
        <ele>319</ele>
        <time>2018-03-30T00:00:04Z</time>
      </trkpt>
      <trkpt lat="45.37852" lon="4.97535">
        <ele>319</ele>
        <time>2018-03-30T00:01:04Z</time>
      </trkpt>
      <trkpt lat="45.37721" lon="4.97019">
        <ele>305</ele>
        <time>2018-03-30T00:02:04Z</time>
      </trkpt>
      <trkpt lat="45.37686" lon="4.9687">
        <ele>304</ele>
        <time>2018-03-30T00:03:04Z</time>
      </trkpt>
      <trkpt lat="45.37625" lon="4.967">
        <ele>300</ele>
        <time>2018-03-30T00:04:04Z</time>
      </trkpt>
      <trkpt lat="45.37582" lon="4.96598">
        <ele>299</ele>
        <time>2018-03-30T00:05:04Z</time>
      </trkpt>
      <trkpt lat="45.37569" lon="4.96553">
        <ele>300</ele>
        <time>2018-03-30T00:06:04Z</time>
      </trkpt>
      <trkpt lat="45.37565" lon="4.96518">
        <ele>301</ele>
        <time>2018-03-30T00:07:04Z</time>
      </trkpt>
      <trkpt lat="45.37574" lon="4.96358">
        <ele>301</ele>
        <time>2018-03-30T00:09:04Z</time>
      </trkpt>
      <trkpt lat="45.37662" lon="4.96336">
        <ele>305</ele>
        <time>2018-03-30T00:10:04Z</time>
      </trkpt>
      <trkpt lat="45.37805" lon="4.963">
        <ele>311</ele>
        <time>2018-03-30T00:12:04Z</time>
      </trkpt>
      <trkpt lat="45.37865" lon="4.9628">
        <ele>315</ele>
        <time>2018-03-30T00:13:04Z</time>
      </trkpt>
      <trkpt lat="45.37876" lon="4.96271">
        <ele>317</ele>
        <time>2018-03-30T00:14:04Z</time>
      </trkpt>
      <trkpt lat="45.37896" lon="4.96232">
        <ele>320</ele>
        <time>2018-03-30T00:15:04Z</time>
      </trkpt>
      <trkpt lat="45.3791" lon="4.96175">
        <ele>324</ele>
        <time>2018-03-30T00:16:04Z</time>
      </trkpt>
      <trkpt lat="45.3793" lon="4.96081">
        <ele>329</ele>
        <time>2018-03-30T00:17:04Z</time>
      </trkpt>
      <trkpt lat="45.37929" lon="4.96063">
        <ele>330</ele>
        <time>2018-03-30T00:18:04Z</time>
      </trkpt>
      <trkpt lat="45.37925" lon="4.96048">
        <ele>330</ele>
        <time>2018-03-30T00:19:04Z</time>
      </trkpt>
      <trkpt lat="45.37906" lon="4.96">
        <ele>329</ele>
        <time>2018-03-30T00:20:04Z</time>
      </trkpt>
      <trkpt lat="45.37908" lon="4.95988">
        <ele>329</ele>
        <time>2018-03-30T00:21:04Z</time>
      </trkpt>
      <trkpt lat="45.37914" lon="4.95977">
        <ele>330</ele>
        <time>2018-03-30T00:22:04Z</time>
      </trkpt>
      <trkpt lat="45.37935" lon="4.95968">
        <ele>331</ele>
        <time>2018-03-30T00:23:04Z</time>
      </trkpt>
      <trkpt lat="45.3794" lon="4.95973">
        <ele>332</ele>
        <time>2018-03-30T00:24:04Z</time>
      </trkpt>
      <trkpt lat="45.37981" lon="4.96035">
        <ele>335</ele>
        <time>2018-03-30T00:25:04Z</time>
      </trkpt>
      <trkpt lat="45.37989" lon="4.9604">
        <ele>336</ele>
        <time>2018-03-30T00:26:04Z</time>
      </trkpt>
      <trkpt lat="45.37998" lon="4.96042">
        <ele>336</ele>
        <time>2018-03-30T00:27:04Z</time>
      </trkpt>
      <trkpt lat="45.38038" lon="4.96131">
        <ele>334</ele>
        <time>2018-03-30T00:29:04Z</time>
      </trkpt>
      <trkpt lat="45.38081" lon="4.96195">
        <ele>332</ele>
        <time>2018-03-30T00:30:04Z</time>
      </trkpt>
      <trkpt lat="45.38093" lon="4.96219">
        <ele>333</ele>
        <time>2018-03-30T00:32:04Z</time>
      </trkpt>
      <trkpt lat="45.38099" lon="4.96242">
        <ele>334</ele>
        <time>2018-03-30T00:33:04Z</time>
      </trkpt>
      <trkpt lat="45.38098" lon="4.96273">
        <ele>334</ele>
        <time>2018-03-30T00:34:04Z</time>
      </trkpt>
      <trkpt lat="45.38092" lon="4.96319">
        <ele>334</ele>
        <time>2018-03-30T00:35:04Z</time>
      </trkpt>
      <trkpt lat="45.3809" lon="4.96359">
        <ele>334</ele>
        <time>2018-03-30T00:36:04Z</time>
      </trkpt>
      <trkpt lat="45.38089" lon="4.96411">
        <ele>334</ele>
        <time>2018-03-30T00:37:04Z</time>
      </trkpt>
      <trkpt lat="45.38097" lon="4.96523">
        <ele>334</ele>
        <time>2018-03-30T00:38:04Z</time>
      </trkpt>
      <trkpt lat="45.38092" lon="4.96567">
        <ele>333</ele>
        <time>2018-03-30T00:39:04Z</time>
      </trkpt>
      <trkpt lat="45.38079" lon="4.96631">
        <ele>330</ele>
        <time>2018-03-30T00:40:04Z</time>
      </trkpt>
      <trkpt lat="45.38071" lon="4.96683">
        <ele>329</ele>
        <time>2018-03-30T00:41:04Z</time>
      </trkpt>
      <trkpt lat="45.38066" lon="4.96736">
        <ele>330</ele>
        <time>2018-03-30T00:42:04Z</time>
      </trkpt>
      <trkpt lat="45.38071" lon="4.9677">
        <ele>331</ele>
        <time>2018-03-30T00:43:04Z</time>
      </trkpt>
      <trkpt lat="45.38078" lon="4.96798">
        <ele>332</ele>
        <time>2018-03-30T00:44:04Z</time>
      </trkpt>
      <trkpt lat="45.38102" lon="4.96859">
        <ele>334</ele>
        <time>2018-03-30T00:45:04Z</time>
      </trkpt>
      <trkpt lat="45.38128" lon="4.96937">
        <ele>335</ele>
        <time>2018-03-30T00:46:04Z</time>
      </trkpt>
      <trkpt lat="45.38135" lon="4.971">
        <ele>329</ele>
        <time>2018-03-30T00:47:04Z</time>
      </trkpt>
      <trkpt lat="45.38159" lon="4.97151">
        <ele>331</ele>
        <time>2018-03-30T00:48:04Z</time>
      </trkpt>
      <trkpt lat="45.38195" lon="4.97197">
        <ele>336</ele>
        <time>2018-03-30T00:49:04Z</time>
      </trkpt>
      <trkpt lat="45.38239" lon="4.97277">
        <ele>340</ele>
        <time>2018-03-30T00:50:04Z</time>
      </trkpt>
      <trkpt lat="45.38258" lon="4.97319">
        <ele>341</ele>
        <time>2018-03-30T00:51:04Z</time>
      </trkpt>
      <trkpt lat="45.38246" lon="4.97386">
        <ele>340</ele>
        <time>2018-03-30T00:52:04Z</time>
      </trkpt>
      <trkpt lat="45.38243" lon="4.97474">
        <ele>342</ele>
        <time>2018-03-30T00:53:04Z</time>
      </trkpt>
      <trkpt lat="45.38251" lon="4.97553">
        <ele>343</ele>
        <time>2018-03-30T00:54:04Z</time>
      </trkpt>
      <trkpt lat="45.38265" lon="4.97648">
        <ele>343</ele>
        <time>2018-03-30T00:55:04Z</time>
      </trkpt>
      <trkpt lat="45.3828" lon="4.97904">
        <ele>346</ele>
        <time>2018-03-30T00:56:04Z</time>
      </trkpt>
      <trkpt lat="45.38293" lon="4.97982">
        <ele>349</ele>
        <time>2018-03-30T00:57:04Z</time>
      </trkpt>
      <trkpt lat="45.38302" lon="4.98078">
        <ele>347</ele>
        <time>2018-03-30T00:58:04Z</time>
      </trkpt>
      <trkpt lat="45.38328" lon="4.98178">
        <ele>345</ele>
        <time>2018-03-30T00:59:04Z</time>
      </trkpt>
      <trkpt lat="45.3835" lon="4.98255">
        <ele>344</ele>
        <time>2018-03-30T01:00:04Z</time>
      </trkpt>
      <trkpt lat="45.38357" lon="4.98307">
        <ele>348</ele>
        <time>2018-03-30T01:01:04Z</time>
      </trkpt>
      <trkpt lat="45.38363" lon="4.98384">
        <ele>356</ele>
        <time>2018-03-30T01:02:04Z</time>
      </trkpt>
      <trkpt lat="45.38364" lon="4.98405">
        <ele>358</ele>
        <time>2018-03-30T01:03:04Z</time>
      </trkpt>
      <trkpt lat="45.38401" lon="4.98448">
        <ele>362</ele>
        <time>2018-03-30T01:04:04Z</time>
      </trkpt>
      <trkpt lat="45.38414" lon="4.9858">
        <ele>372</ele>
        <time>2018-03-30T01:05:04Z</time>
      </trkpt>
      <trkpt lat="45.38428" lon="4.98673">
        <ele>375</ele>
        <time>2018-03-30T01:06:04Z</time>
      </trkpt>
      <trkpt lat="45.38455" lon="4.98797">
        <ele>377</ele>
        <time>2018-03-30T01:07:04Z</time>
      </trkpt>
      <trkpt lat="45.38477" lon="4.9883">
        <ele>379</ele>
        <time>2018-03-30T01:08:04Z</time>
      </trkpt>
      <trkpt lat="45.3852" lon="4.9886">
        <ele>380</ele>
        <time>2018-03-30T01:09:04Z</time>
      </trkpt>
      <trkpt lat="45.3856" lon="4.9887">
        <ele>381</ele>
        <time>2018-03-30T01:10:04Z</time>
      </trkpt>
      <trkpt lat="45.38616" lon="4.98855">
        <ele>387</ele>
        <time>2018-03-30T01:12:04Z</time>
      </trkpt>
      <trkpt lat="45.38666" lon="4.98862">
        <ele>389</ele>
        <time>2018-03-30T01:14:04Z</time>
      </trkpt>
      <trkpt lat="45.38784" lon="4.98945">
        <ele>386</ele>
        <time>2018-03-30T01:15:04Z</time>
      </trkpt>
      <trkpt lat="45.388" lon="4.9896">
        <ele>386</ele>
        <time>2018-03-30T01:16:04Z</time>
      </trkpt>
      <trkpt lat="45.38837" lon="4.99015">
        <ele>386</ele>
        <time>2018-03-30T01:17:04Z</time>
      </trkpt>
      <trkpt lat="45.38884" lon="4.99143">
        <ele>386</ele>
        <time>2018-03-30T01:18:04Z</time>
      </trkpt>
      <trkpt lat="45.38919" lon="4.99214">
        <ele>387</ele>
        <time>2018-03-30T01:19:04Z</time>
      </trkpt>
      <trkpt lat="45.38951" lon="4.99286">
        <ele>385</ele>
        <time>2018-03-30T01:20:04Z</time>
      </trkpt>
      <trkpt lat="45.38981" lon="4.99345">
        <ele>381</ele>
        <time>2018-03-30T01:21:04Z</time>
      </trkpt>
      <trkpt lat="45.39024" lon="4.99411">
        <ele>377</ele>
        <time>2018-03-30T01:22:04Z</time>
      </trkpt>
      <trkpt lat="45.39032" lon="4.99421">
        <ele>376</ele>
        <time>2018-03-30T01:23:04Z</time>
      </trkpt>
      <trkpt lat="45.39052" lon="4.99431">
        <ele>376</ele>
        <time>2018-03-30T01:24:04Z</time>
      </trkpt>
      <trkpt lat="45.39079" lon="4.99435">
        <ele>376</ele>
        <time>2018-03-30T01:25:04Z</time>
      </trkpt>
      <trkpt lat="45.39211" lon="4.99567">
        <ele>362</ele>
        <time>2018-03-30T01:26:04Z</time>
      </trkpt>
      <trkpt lat="45.3925" lon="4.99642">
        <ele>357</ele>
        <time>2018-03-30T01:27:04Z</time>
      </trkpt>
      <trkpt lat="45.3926" lon="4.99659">
        <ele>357</ele>
        <time>2018-03-30T01:28:04Z</time>
      </trkpt>
      <trkpt lat="45.3927" lon="4.99674">
        <ele>357</ele>
        <time>2018-03-30T01:30:04Z</time>
      </trkpt>
      <trkpt lat="45.39285" lon="4.99726">
        <ele>356</ele>
        <time>2018-03-30T01:31:04Z</time>
      </trkpt>
      <trkpt lat="45.3931" lon="4.99759">
        <ele>356</ele>
        <time>2018-03-30T01:32:04Z</time>
      </trkpt>
      <trkpt lat="45.39385" lon="4.99805">
        <ele>357</ele>
        <time>2018-03-30T01:33:04Z</time>
      </trkpt>
      <trkpt lat="45.39484" lon="4.99879">
        <ele>358</ele>
        <time>2018-03-30T01:34:04Z</time>
      </trkpt>
      <trkpt lat="45.39511" lon="4.99908">
        <ele>358</ele>
        <time>2018-03-30T01:35:04Z</time>
      </trkpt>
      <trkpt lat="45.39529" lon="4.99933">
        <ele>358</ele>
        <time>2018-03-30T01:36:04Z</time>
      </trkpt>
      <trkpt lat="45.39564" lon="4.99956">
        <ele>360</ele>
        <time>2018-03-30T01:37:04Z</time>
      </trkpt>
      <trkpt lat="45.39613" lon="4.99967">
        <ele>363</ele>
        <time>2018-03-30T01:38:04Z</time>
      </trkpt>
      <trkpt lat="45.39634" lon="4.99975">
        <ele>365</ele>
        <time>2018-03-30T01:39:04Z</time>
      </trkpt>
      <trkpt lat="45.39645" lon="4.99985">
        <ele>366</ele>
        <time>2018-03-30T01:40:04Z</time>
      </trkpt>
      <trkpt lat="45.39652" lon="4.99999">
        <ele>367</ele>
        <time>2018-03-30T01:41:04Z</time>
      </trkpt>
      <trkpt lat="45.39659" lon="5.00023">
        <ele>369</ele>
        <time>2018-03-30T01:42:04Z</time>
      </trkpt>
      <trkpt lat="45.39673" lon="5.0013">
        <ele>377</ele>
        <time>2018-03-30T01:43:04Z</time>
      </trkpt>
      <trkpt lat="45.39682" lon="5.00169">
        <ele>378</ele>
        <time>2018-03-30T01:44:04Z</time>
      </trkpt>
      <trkpt lat="45.39718" lon="5.00195">
        <ele>383</ele>
        <time>2018-03-30T01:45:04Z</time>
      </trkpt>
      <trkpt lat="45.39771" lon="5.00223">
        <ele>389</ele>
        <time>2018-03-30T01:46:04Z</time>
      </trkpt>
      <trkpt lat="45.39908" lon="5.00336">
        <ele>410</ele>
        <time>2018-03-30T01:47:04Z</time>
      </trkpt>
      <trkpt lat="45.40169" lon="5.0045">
        <ele>438</ele>
        <time>2018-03-30T01:48:04Z</time>
      </trkpt>
      <trkpt lat="45.40225" lon="5.00479">
        <ele>442</ele>
        <time>2018-03-30T01:49:04Z</time>
      </trkpt>
      <trkpt lat="45.40301" lon="5.00487">
        <ele>445</ele>
        <time>2018-03-30T01:50:04Z</time>
      </trkpt>
      <trkpt lat="45.40344" lon="5.00504">
        <ele>447</ele>
        <time>2018-03-30T01:51:04Z</time>
      </trkpt>
      <trkpt lat="45.40409" lon="5.00516">
        <ele>448</ele>
        <time>2018-03-30T01:52:04Z</time>
      </trkpt>
      <trkpt lat="45.40544" lon="5.0055">
        <ele>450</ele>
        <time>2018-03-30T01:53:04Z</time>
      </trkpt>
      <trkpt lat="45.40672" lon="5.00555">
        <ele>453</ele>
        <time>2018-03-30T01:54:04Z</time>
      </trkpt>
      <trkpt lat="45.40775" lon="5.00558">
        <ele>455</ele>
        <time>2018-03-30T01:56:04Z</time>
      </trkpt>
      <trkpt lat="45.40817" lon="5.00552">
        <ele>456</ele>
        <time>2018-03-30T01:57:04Z</time>
      </trkpt>
      <trkpt lat="45.40856" lon="5.00548">
        <ele>457</ele>
        <time>2018-03-30T01:58:04Z</time>
      </trkpt>
      <trkpt lat="45.40871" lon="5.00724">
        <ele>455</ele>
        <time>2018-03-30T01:59:04Z</time>
      </trkpt>
      <trkpt lat="45.40874" lon="5.00738">
        <ele>455</ele>
        <time>2018-03-30T02:00:04Z</time>
      </trkpt>
      <trkpt lat="45.40883" lon="5.00754">
        <ele>455</ele>
        <time>2018-03-30T02:01:04Z</time>
      </trkpt>
      <trkpt lat="45.40893" lon="5.00758">
        <ele>456</ele>
        <time>2018-03-30T02:02:04Z</time>
      </trkpt>
      <trkpt lat="45.40906" lon="5.00755">
        <ele>456</ele>
        <time>2018-03-30T02:03:04Z</time>
      </trkpt>
      <trkpt lat="45.40956" lon="5.00726">
        <ele>456</ele>
        <time>2018-03-30T02:04:04Z</time>
      </trkpt>
      <trkpt lat="45.40977" lon="5.00717">
        <ele>456</ele>
        <time>2018-03-30T02:05:04Z</time>
      </trkpt>
      <trkpt lat="45.41006" lon="5.00713">
        <ele>456</ele>
        <time>2018-03-30T02:06:04Z</time>
      </trkpt>
      <trkpt lat="45.41099" lon="5.00683">
        <ele>454</ele>
        <time>2018-03-30T02:07:04Z</time>
      </trkpt>
      <trkpt lat="45.41124" lon="5.00668">
        <ele>453</ele>
        <time>2018-03-30T02:08:04Z</time>
      </trkpt>
      <trkpt lat="45.41152" lon="5.0063">
        <ele>451</ele>
        <time>2018-03-30T02:09:04Z</time>
      </trkpt>
      <trkpt lat="45.41192" lon="5.00581">
        <ele>448</ele>
        <time>2018-03-30T02:10:04Z</time>
      </trkpt>
      <trkpt lat="45.41242" lon="5.00543">
        <ele>445</ele>
        <time>2018-03-30T02:11:04Z</time>
      </trkpt>
      <trkpt lat="45.41255" lon="5.00537">
        <ele>445</ele>
        <time>2018-03-30T02:12:04Z</time>
      </trkpt>
      <trkpt lat="45.41271" lon="5.00538">
        <ele>445</ele>
        <time>2018-03-30T02:13:04Z</time>
      </trkpt>
      <trkpt lat="45.41308" lon="5.00554">
        <ele>446</ele>
        <time>2018-03-30T02:14:04Z</time>
      </trkpt>
      <trkpt lat="45.41331" lon="5.0056">
        <ele>447</ele>
        <time>2018-03-30T02:15:04Z</time>
      </trkpt>
      <trkpt lat="45.41346" lon="5.00567">
        <ele>448</ele>
        <time>2018-03-30T02:16:04Z</time>
      </trkpt>
      <trkpt lat="45.41356" lon="5.00579">
        <ele>448</ele>
        <time>2018-03-30T02:17:04Z</time>
      </trkpt>
      <trkpt lat="45.4139" lon="5.00651">
        <ele>452</ele>
        <time>2018-03-30T02:18:04Z</time>
      </trkpt>
      <trkpt lat="45.41413" lon="5.00683">
        <ele>454</ele>
        <time>2018-03-30T02:19:04Z</time>
      </trkpt>
      <trkpt lat="45.41472" lon="5.00744">
        <ele>457</ele>
        <time>2018-03-30T02:20:04Z</time>
      </trkpt>
      <trkpt lat="45.41474" lon="5.00746">
        <ele>457</ele>
        <time>2018-03-30T02:22:04Z</time>
      </trkpt>
      <trkpt lat="45.41469" lon="5.00865">
        <ele>456</ele>
        <time>2018-03-30T02:23:04Z</time>
      </trkpt>
      <trkpt lat="45.41515" lon="5.01364">
        <ele>454</ele>
        <time>2018-03-30T02:24:04Z</time>
      </trkpt>
      <trkpt lat="45.41524" lon="5.01398">
        <ele>454</ele>
        <time>2018-03-30T02:25:04Z</time>
      </trkpt>
      <trkpt lat="45.41538" lon="5.01427">
        <ele>454</ele>
        <time>2018-03-30T02:26:04Z</time>
      </trkpt>
      <trkpt lat="45.41557" lon="5.01452">
        <ele>454</ele>
        <time>2018-03-30T02:27:04Z</time>
      </trkpt>
      <trkpt lat="45.41578" lon="5.0147">
        <ele>454</ele>
        <time>2018-03-30T02:28:04Z</time>
      </trkpt>
      <trkpt lat="45.41634" lon="5.01502">
        <ele>455</ele>
        <time>2018-03-30T02:29:04Z</time>
      </trkpt>
      <trkpt lat="45.4166" lon="5.0151">
        <ele>455</ele>
        <time>2018-03-30T02:30:04Z</time>
      </trkpt>
      <trkpt lat="45.41678" lon="5.01509">
        <ele>455</ele>
        <time>2018-03-30T02:31:04Z</time>
      </trkpt>
      <trkpt lat="45.41695" lon="5.01503">
        <ele>456</ele>
        <time>2018-03-30T02:32:04Z</time>
      </trkpt>
      <trkpt lat="45.41779" lon="5.0144">
        <ele>458</ele>
        <time>2018-03-30T02:33:04Z</time>
      </trkpt>
      <trkpt lat="45.41804" lon="5.01444">
        <ele>459</ele>
        <time>2018-03-30T02:35:04Z</time>
      </trkpt>
      <trkpt lat="45.41816" lon="5.01456">
        <ele>459</ele>
        <time>2018-03-30T02:36:04Z</time>
      </trkpt>
      <trkpt lat="45.41822" lon="5.01475">
        <ele>459</ele>
        <time>2018-03-30T02:37:04Z</time>
      </trkpt>
      <trkpt lat="45.41831" lon="5.01538">
        <ele>459</ele>
        <time>2018-03-30T02:38:04Z</time>
      </trkpt>
      <trkpt lat="45.41834" lon="5.01555">
        <ele>459</ele>
        <time>2018-03-30T02:40:04Z</time>
      </trkpt>
      <trkpt lat="45.4192" lon="5.01544">
        <ele>463</ele>
        <time>2018-03-30T02:41:04Z</time>
      </trkpt>
      <trkpt lat="45.42068" lon="5.01536">
        <ele>457</ele>
        <time>2018-03-30T02:42:04Z</time>
      </trkpt>
      <trkpt lat="45.42103" lon="5.01532">
        <ele>456</ele>
        <time>2018-03-30T02:43:04Z</time>
      </trkpt>
      <trkpt lat="45.42112" lon="5.01548">
        <ele>456</ele>
        <time>2018-03-30T02:44:04Z</time>
      </trkpt>
      <trkpt lat="45.42157" lon="5.01587">
        <ele>456</ele>
        <time>2018-03-30T02:45:04Z</time>
      </trkpt>
      <trkpt lat="45.4221" lon="5.01623">
        <ele>458</ele>
        <time>2018-03-30T02:46:04Z</time>
      </trkpt>
      <trkpt lat="45.42337" lon="5.01685">
        <ele>461</ele>
        <time>2018-03-30T02:47:04Z</time>
      </trkpt>
      <trkpt lat="45.42497" lon="5.01801">
        <ele>460</ele>
        <time>2018-03-30T02:48:04Z</time>
      </trkpt>
      <trkpt lat="45.42591" lon="5.01843">
        <ele>458</ele>
        <time>2018-03-30T02:49:04Z</time>
      </trkpt>
      <trkpt lat="45.42638" lon="5.01886">
        <ele>457</ele>
        <time>2018-03-30T02:50:04Z</time>
      </trkpt>
      <trkpt lat="45.42649" lon="5.01895">
        <ele>457</ele>
        <time>2018-03-30T02:52:04Z</time>
      </trkpt>
      <trkpt lat="45.42686" lon="5.019">
        <ele>457</ele>
        <time>2018-03-30T02:53:04Z</time>
      </trkpt>
      <trkpt lat="45.42751" lon="5.01895">
        <ele>454</ele>
        <time>2018-03-30T02:54:04Z</time>
      </trkpt>
      <trkpt lat="45.42783" lon="5.01897">
        <ele>454</ele>
        <time>2018-03-30T02:55:04Z</time>
      </trkpt>
      <trkpt lat="45.42855" lon="5.01912">
        <ele>455</ele>
        <time>2018-03-30T02:56:04Z</time>
      </trkpt>
      <trkpt lat="45.42907" lon="5.0191">
        <ele>456</ele>
        <time>2018-03-30T02:57:04Z</time>
      </trkpt>
      <trkpt lat="45.4295" lon="5.01916">
        <ele>456</ele>
        <time>2018-03-30T02:58:04Z</time>
      </trkpt>
      <trkpt lat="45.42973" lon="5.01928">
        <ele>455</ele>
        <time>2018-03-30T02:59:04Z</time>
      </trkpt>
      <trkpt lat="45.43027" lon="5.01993">
        <ele>451</ele>
        <time>2018-03-30T03:00:04Z</time>
      </trkpt>
      <trkpt lat="45.43075" lon="5.02058">
        <ele>446</ele>
        <time>2018-03-30T03:01:04Z</time>
      </trkpt>
      <trkpt lat="45.43099" lon="5.02076">
        <ele>444</ele>
        <time>2018-03-30T03:02:04Z</time>
      </trkpt>
      <trkpt lat="45.43167" lon="5.02099">
        <ele>443</ele>
        <time>2018-03-30T03:03:04Z</time>
      </trkpt>
      <trkpt lat="45.43265" lon="5.02128">
        <ele>441</ele>
        <time>2018-03-30T03:04:04Z</time>
      </trkpt>
      <trkpt lat="45.43371" lon="5.0215">
        <ele>439</ele>
        <time>2018-03-30T03:05:04Z</time>
      </trkpt>
      <trkpt lat="45.43488" lon="5.02154">
        <ele>436</ele>
        <time>2018-03-30T03:06:04Z</time>
      </trkpt>
      <trkpt lat="45.4356" lon="5.02167">
        <ele>435</ele>
        <time>2018-03-30T03:07:04Z</time>
      </trkpt>
      <trkpt lat="45.43616" lon="5.02195">
        <ele>431</ele>
        <time>2018-03-30T03:08:04Z</time>
      </trkpt>
      <trkpt lat="45.43665" lon="5.02212">
        <ele>431</ele>
        <time>2018-03-30T03:09:04Z</time>
      </trkpt>
      <trkpt lat="45.43733" lon="5.02262">
        <ele>428</ele>
        <time>2018-03-30T03:10:04Z</time>
      </trkpt>
      <trkpt lat="45.43754" lon="5.0227">
        <ele>428</ele>
        <time>2018-03-30T03:11:04Z</time>
      </trkpt>
      <trkpt lat="45.43789" lon="5.02267">
        <ele>426</ele>
        <time>2018-03-30T03:12:04Z</time>
      </trkpt>
      <trkpt lat="45.43827" lon="5.02271">
        <ele>425</ele>
        <time>2018-03-30T03:13:04Z</time>
      </trkpt>
      <trkpt lat="45.4388" lon="5.02266">
        <ele>420</ele>
        <time>2018-03-30T03:14:04Z</time>
      </trkpt>
      <trkpt lat="45.43898" lon="5.02271">
        <ele>418</ele>
        <time>2018-03-30T03:15:04Z</time>
      </trkpt>
      <trkpt lat="45.43921" lon="5.02302">
        <ele>414</ele>
        <time>2018-03-30T03:16:04Z</time>
      </trkpt>
      <trkpt lat="45.43964" lon="5.02337">
        <ele>410</ele>
        <time>2018-03-30T03:17:04Z</time>
      </trkpt>
      <trkpt lat="45.4406" lon="5.02465">
        <ele>394</ele>
        <time>2018-03-30T03:18:04Z</time>
      </trkpt>
      <trkpt lat="45.44105" lon="5.02387">
        <ele>392</ele>
        <time>2018-03-30T03:19:04Z</time>
      </trkpt>
      <trkpt lat="45.4417" lon="5.02452">
        <ele>382</ele>
        <time>2018-03-30T03:20:04Z</time>
      </trkpt>
      <trkpt lat="45.44243" lon="5.02563">
        <ele>371</ele>
        <time>2018-03-30T03:21:04Z</time>
      </trkpt>
      <trkpt lat="45.44253" lon="5.02577">
        <ele>370</ele>
        <time>2018-03-30T03:23:04Z</time>
      </trkpt>
      <trkpt lat="45.44259" lon="5.02664">
        <ele>364</ele>
        <time>2018-03-30T03:24:04Z</time>
      </trkpt>
      <trkpt lat="45.44309" lon="5.02669">
        <ele>360</ele>
        <time>2018-03-30T03:25:04Z</time>
      </trkpt>
      <trkpt lat="45.44281" lon="5.02965">
        <ele>361</ele>
        <time>2018-03-30T03:26:04Z</time>
      </trkpt>
      <trkpt lat="45.44265" lon="5.03171">
        <ele>368</ele>
        <time>2018-03-30T03:27:04Z</time>
      </trkpt>
      <trkpt lat="45.44241" lon="5.03447">
        <ele>368</ele>
        <time>2018-03-30T03:28:04Z</time>
      </trkpt>
      <trkpt lat="45.44046" lon="5.05544">
        <ele>397</ele>
        <time>2018-03-30T03:29:04Z</time>
      </trkpt>
      <trkpt lat="45.44025" lon="5.05601">
        <ele>398</ele>
        <time>2018-03-30T03:30:04Z</time>
      </trkpt>
      <trkpt lat="45.44012" lon="5.05625">
        <ele>398</ele>
        <time>2018-03-30T03:31:04Z</time>
      </trkpt>
      <trkpt lat="45.43999" lon="5.05642">
        <ele>398</ele>
        <time>2018-03-30T03:32:04Z</time>
      </trkpt>
      <trkpt lat="45.43953" lon="5.05692">
        <ele>402</ele>
        <time>2018-03-30T03:33:04Z</time>
      </trkpt>
      <trkpt lat="45.43924" lon="5.05721">
        <ele>405</ele>
        <time>2018-03-30T03:35:04Z</time>
      </trkpt>
      <trkpt lat="45.43881" lon="5.05761">
        <ele>406</ele>
        <time>2018-03-30T03:36:04Z</time>
      </trkpt>
      <trkpt lat="45.43857" lon="5.05776">
        <ele>408</ele>
        <time>2018-03-30T03:37:04Z</time>
      </trkpt>
      <trkpt lat="45.43776" lon="5.05802">
        <ele>411</ele>
        <time>2018-03-30T03:38:04Z</time>
      </trkpt>
      <trkpt lat="45.43735" lon="5.05823">
        <ele>410</ele>
        <time>2018-03-30T03:39:04Z</time>
      </trkpt>
      <trkpt lat="45.43653" lon="5.05882">
        <ele>406</ele>
        <time>2018-03-30T03:40:04Z</time>
      </trkpt>
      <trkpt lat="45.43347" lon="5.06094">
        <ele>410</ele>
        <time>2018-03-30T03:41:04Z</time>
      </trkpt>
      <trkpt lat="45.43323" lon="5.06113">
        <ele>411</ele>
        <time>2018-03-30T03:42:04Z</time>
      </trkpt>
      <trkpt lat="45.43304" lon="5.06134">
        <ele>411</ele>
        <time>2018-03-30T03:43:04Z</time>
      </trkpt>
      <trkpt lat="45.43288" lon="5.06161">
        <ele>410</ele>
        <time>2018-03-30T03:44:04Z</time>
      </trkpt>
      <trkpt lat="45.43232" lon="5.06287">
        <ele>416</ele>
        <time>2018-03-30T03:45:04Z</time>
      </trkpt>
      <trkpt lat="45.43219" lon="5.06321">
        <ele>418</ele>
        <time>2018-03-30T03:46:04Z</time>
      </trkpt>
      <trkpt lat="45.43195" lon="5.06394">
        <ele>419</ele>
        <time>2018-03-30T03:47:04Z</time>
      </trkpt>
      <trkpt lat="45.43187" lon="5.06415">
        <ele>419</ele>
        <time>2018-03-30T03:48:04Z</time>
      </trkpt>
      <trkpt lat="45.43177" lon="5.06435">
        <ele>419</ele>
        <time>2018-03-30T03:49:04Z</time>
      </trkpt>
      <trkpt lat="45.43044" lon="5.0663">
        <ele>428</ele>
        <time>2018-03-30T03:50:04Z</time>
      </trkpt>
      <trkpt lat="45.43022" lon="5.06672">
        <ele>428</ele>
        <time>2018-03-30T03:51:04Z</time>
      </trkpt>
      <trkpt lat="45.42994" lon="5.06741">
        <ele>431</ele>
        <time>2018-03-30T03:52:04Z</time>
      </trkpt>
      <trkpt lat="45.42976" lon="5.06796">
        <ele>436</ele>
        <time>2018-03-30T03:53:04Z</time>
      </trkpt>
      <trkpt lat="45.42971" lon="5.06819">
        <ele>438</ele>
        <time>2018-03-30T03:54:04Z</time>
      </trkpt>
      <trkpt lat="45.42965" lon="5.06861">
        <ele>440</ele>
        <time>2018-03-30T03:55:04Z</time>
      </trkpt>
      <trkpt lat="45.42963" lon="5.06904">
        <ele>443</ele>
        <time>2018-03-30T03:56:04Z</time>
      </trkpt>
      <trkpt lat="45.42967" lon="5.07064">
        <ele>453</ele>
        <time>2018-03-30T03:57:04Z</time>
      </trkpt>
      <trkpt lat="45.42965" lon="5.07124">
        <ele>454</ele>
        <time>2018-03-30T03:58:04Z</time>
      </trkpt>
      <trkpt lat="45.42962" lon="5.07158">
        <ele>454</ele>
        <time>2018-03-30T03:59:04Z</time>
      </trkpt>
      <trkpt lat="45.42951" lon="5.07199">
        <ele>455</ele>
        <time>2018-03-30T04:00:04Z</time>
      </trkpt>
      <trkpt lat="45.42938" lon="5.07231">
        <ele>454</ele>
        <time>2018-03-30T04:01:04Z</time>
      </trkpt>
      <trkpt lat="45.42919" lon="5.07267">
        <ele>453</ele>
        <time>2018-03-30T04:02:04Z</time>
      </trkpt>
      <trkpt lat="45.42907" lon="5.07284">
        <ele>454</ele>
        <time>2018-03-30T04:03:04Z</time>
      </trkpt>
      <trkpt lat="45.42869" lon="5.07329">
        <ele>452</ele>
        <time>2018-03-30T04:04:04Z</time>
      </trkpt>
      <trkpt lat="45.42857" lon="5.07347">
        <ele>452</ele>
        <time>2018-03-30T04:05:04Z</time>
      </trkpt>
      <trkpt lat="45.4285" lon="5.07363">
        <ele>452</ele>
        <time>2018-03-30T04:06:04Z</time>
      </trkpt>
      <trkpt lat="45.42845" lon="5.07381">
        <ele>452</ele>
        <time>2018-03-30T04:07:04Z</time>
      </trkpt>
      <trkpt lat="45.4284" lon="5.07434">
        <ele>455</ele>
        <time>2018-03-30T04:08:04Z</time>
      </trkpt>
      <trkpt lat="45.42835" lon="5.07465">
        <ele>455</ele>
        <time>2018-03-30T04:09:04Z</time>
      </trkpt>
      <trkpt lat="45.42803" lon="5.07598">
        <ele>463</ele>
        <time>2018-03-30T04:10:04Z</time>
      </trkpt>
      <trkpt lat="45.42796" lon="5.07615">
        <ele>464</ele>
        <time>2018-03-30T04:11:04Z</time>
      </trkpt>
      <trkpt lat="45.42789" lon="5.07628">
        <ele>465</ele>
        <time>2018-03-30T04:12:04Z</time>
      </trkpt>
      <trkpt lat="45.42766" lon="5.07659">
        <ele>467</ele>
        <time>2018-03-30T04:13:04Z</time>
      </trkpt>
      <trkpt lat="45.42755" lon="5.07678">
        <ele>467</ele>
        <time>2018-03-30T04:14:04Z</time>
      </trkpt>
      <trkpt lat="45.4275" lon="5.07688">
        <ele>467</ele>
        <time>2018-03-30T04:15:04Z</time>
      </trkpt>
      <trkpt lat="45.42744" lon="5.07711">
        <ele>468</ele>
        <time>2018-03-30T04:16:04Z</time>
      </trkpt>
      <trkpt lat="45.42732" lon="5.0777">
        <ele>469</ele>
        <time>2018-03-30T04:17:04Z</time>
      </trkpt>
      <trkpt lat="45.42728" lon="5.07783">
        <ele>470</ele>
        <time>2018-03-30T04:18:04Z</time>
      </trkpt>
      <trkpt lat="45.42718" lon="5.07806">
        <ele>469</ele>
        <time>2018-03-30T04:19:04Z</time>
      </trkpt>
      <trkpt lat="45.42702" lon="5.07829">
        <ele>469</ele>
        <time>2018-03-30T04:20:04Z</time>
      </trkpt>
      <trkpt lat="45.42677" lon="5.07856">
        <ele>469</ele>
        <time>2018-03-30T04:21:04Z</time>
      </trkpt>
      <trkpt lat="45.42658" lon="5.07885">
        <ele>469</ele>
        <time>2018-03-30T04:22:04Z</time>
      </trkpt>
      <trkpt lat="45.42627" lon="5.07968">
        <ele>470</ele>
        <time>2018-03-30T04:23:04Z</time>
      </trkpt>
      <trkpt lat="45.42613" lon="5.08017">
        <ele>472</ele>
        <time>2018-03-30T04:24:04Z</time>
      </trkpt>
      <trkpt lat="45.42609" lon="5.08047">
        <ele>473</ele>
        <time>2018-03-30T04:25:04Z</time>
      </trkpt>
      <trkpt lat="45.42606" lon="5.0811">
        <ele>475</ele>
        <time>2018-03-30T04:26:04Z</time>
      </trkpt>
      <trkpt lat="45.42593" lon="5.08515">
        <ele>481</ele>
        <time>2018-03-30T04:27:04Z</time>
      </trkpt>
      <trkpt lat="45.42591" lon="5.08627">
        <ele>484</ele>
        <time>2018-03-30T04:29:04Z</time>
      </trkpt>
      <trkpt lat="45.42581" lon="5.0894">
        <ele>489</ele>
        <time>2018-03-30T04:30:04Z</time>
      </trkpt>
      <trkpt lat="45.42577" lon="5.08964">
        <ele>489</ele>
        <time>2018-03-30T04:31:04Z</time>
      </trkpt>
      <trkpt lat="45.42569" lon="5.09001">
        <ele>490</ele>
        <time>2018-03-30T04:32:04Z</time>
      </trkpt>
      <trkpt lat="45.42365" lon="5.09659">
        <ele>496</ele>
        <time>2018-03-30T04:33:04Z</time>
      </trkpt>
      <trkpt lat="45.42321" lon="5.09808">
        <ele>497</ele>
        <time>2018-03-30T04:34:04Z</time>
      </trkpt>
      <trkpt lat="45.42127" lon="5.10439">
        <ele>500</ele>
        <time>2018-03-30T04:36:04Z</time>
      </trkpt>
      <trkpt lat="45.42106" lon="5.10494">
        <ele>500</ele>
        <time>2018-03-30T04:37:04Z</time>
      </trkpt>
      <trkpt lat="45.42078" lon="5.1054">
        <ele>499</ele>
        <time>2018-03-30T04:38:04Z</time>
      </trkpt>
      <trkpt lat="45.42038" lon="5.10593">
        <ele>499</ele>
        <time>2018-03-30T04:39:04Z</time>
      </trkpt>
      <trkpt lat="45.41931" lon="5.10706">
        <ele>497</ele>
        <time>2018-03-30T04:40:04Z</time>
      </trkpt>
      <trkpt lat="45.41873" lon="5.10782">
        <ele>496</ele>
        <time>2018-03-30T04:41:04Z</time>
      </trkpt>
      <trkpt lat="45.41854" lon="5.10817">
        <ele>495</ele>
        <time>2018-03-30T04:42:04Z</time>
      </trkpt>
      <trkpt lat="45.41735" lon="5.11075">
        <ele>488</ele>
        <time>2018-03-30T04:43:04Z</time>
      </trkpt>
      <trkpt lat="45.41707" lon="5.11118">
        <ele>486</ele>
        <time>2018-03-30T04:44:04Z</time>
      </trkpt>
      <trkpt lat="45.41682" lon="5.11144">
        <ele>484</ele>
        <time>2018-03-30T04:45:04Z</time>
      </trkpt>
      <trkpt lat="45.41651" lon="5.11187">
        <ele>480</ele>
        <time>2018-03-30T04:46:04Z</time>
      </trkpt>
      <trkpt lat="45.4164" lon="5.11209">
        <ele>479</ele>
        <time>2018-03-30T04:47:04Z</time>
      </trkpt>
      <trkpt lat="45.41616" lon="5.11278">
        <ele>479</ele>
        <time>2018-03-30T04:48:04Z</time>
      </trkpt>
      <trkpt lat="45.41607" lon="5.11288">
        <ele>479</ele>
        <time>2018-03-30T04:49:04Z</time>
      </trkpt>
      <trkpt lat="45.41597" lon="5.11291">
        <ele>478</ele>
        <time>2018-03-30T04:50:04Z</time>
      </trkpt>
      <trkpt lat="45.41582" lon="5.11289">
        <ele>477</ele>
        <time>2018-03-30T04:51:04Z</time>
      </trkpt>
      <trkpt lat="45.41537" lon="5.11261">
        <ele>475</ele>
        <time>2018-03-30T04:52:04Z</time>
      </trkpt>
      <trkpt lat="45.41513" lon="5.11234">
        <ele>473</ele>
        <time>2018-03-30T04:53:04Z</time>
      </trkpt>
      <trkpt lat="45.41473" lon="5.11211">
        <ele>469</ele>
        <time>2018-03-30T04:54:04Z</time>
      </trkpt>
      <trkpt lat="45.4145" lon="5.11203">
        <ele>467</ele>
        <time>2018-03-30T04:55:04Z</time>
      </trkpt>
      <trkpt lat="45.41421" lon="5.11193">
        <ele>464</ele>
        <time>2018-03-30T04:57:04Z</time>
      </trkpt>
      <trkpt lat="45.41399" lon="5.11188">
        <ele>462</ele>
        <time>2018-03-30T04:58:04Z</time>
      </trkpt>
      <trkpt lat="45.41307" lon="5.11186">
        <ele>456</ele>
        <time>2018-03-30T04:59:04Z</time>
      </trkpt>
      <trkpt lat="45.41109" lon="5.11168">
        <ele>447</ele>
        <time>2018-03-30T05:00:04Z</time>
      </trkpt>
      <trkpt lat="45.41073" lon="5.11172">
        <ele>444</ele>
        <time>2018-03-30T05:01:04Z</time>
      </trkpt>
      <trkpt lat="45.4105" lon="5.11187">
        <ele>443</ele>
        <time>2018-03-30T05:02:04Z</time>
      </trkpt>
      <trkpt lat="45.41034" lon="5.11209">
        <ele>442</ele>
        <time>2018-03-30T05:03:04Z</time>
      </trkpt>
      <trkpt lat="45.41025" lon="5.11227">
        <ele>441</ele>
        <time>2018-03-30T05:04:04Z</time>
      </trkpt>
      <trkpt lat="45.40999" lon="5.114">
        <ele>440</ele>
        <time>2018-03-30T05:05:04Z</time>
      </trkpt>
      <trkpt lat="45.4099" lon="5.11425">
        <ele>439</ele>
        <time>2018-03-30T05:06:04Z</time>
      </trkpt>
      <trkpt lat="45.40959" lon="5.11473">
        <ele>436</ele>
        <time>2018-03-30T05:07:04Z</time>
      </trkpt>
      <trkpt lat="45.40692" lon="5.1182">
        <ele>417</ele>
        <time>2018-03-30T05:08:04Z</time>
      </trkpt>
      <trkpt lat="45.40686" lon="5.11849">
        <ele>416</ele>
        <time>2018-03-30T05:09:04Z</time>
      </trkpt>
      <trkpt lat="45.40679" lon="5.11879">
        <ele>415</ele>
        <time>2018-03-30T05:10:04Z</time>
      </trkpt>
      <trkpt lat="45.40661" lon="5.11927">
        <ele>412</ele>
        <time>2018-03-30T05:11:04Z</time>
      </trkpt>
      <trkpt lat="45.4065" lon="5.11953">
        <ele>411</ele>
        <time>2018-03-30T05:13:04Z</time>
      </trkpt>
      <trkpt lat="45.40557" lon="5.12138">
        <ele>403</ele>
        <time>2018-03-30T05:14:04Z</time>
      </trkpt>
      <trkpt lat="45.40544" lon="5.12173">
        <ele>402</ele>
        <time>2018-03-30T05:15:04Z</time>
      </trkpt>
      <trkpt lat="45.40531" lon="5.12227">
        <ele>400</ele>
        <time>2018-03-30T05:16:04Z</time>
      </trkpt>
      <trkpt lat="45.40491" lon="5.12382">
        <ele>397</ele>
        <time>2018-03-30T05:17:04Z</time>
      </trkpt>
      <trkpt lat="45.40481" lon="5.12427">
        <ele>396</ele>
        <time>2018-03-30T05:18:04Z</time>
      </trkpt>
      <trkpt lat="45.40466" lon="5.12529">
        <ele>394</ele>
        <time>2018-03-30T05:19:04Z</time>
      </trkpt>
      <trkpt lat="45.40457" lon="5.1257">
        <ele>393</ele>
        <time>2018-03-30T05:20:04Z</time>
      </trkpt>
      <trkpt lat="45.40444" lon="5.12603">
        <ele>392</ele>
        <time>2018-03-30T05:21:04Z</time>
      </trkpt>
      <trkpt lat="45.40428" lon="5.12635">
        <ele>390</ele>
        <time>2018-03-30T05:22:04Z</time>
      </trkpt>
      <trkpt lat="45.40398" lon="5.12686">
        <ele>389</ele>
        <time>2018-03-30T05:23:04Z</time>
      </trkpt>
      <trkpt lat="45.40321" lon="5.1281">
        <ele>383</ele>
        <time>2018-03-30T05:24:04Z</time>
      </trkpt>
      <trkpt lat="45.40306" lon="5.12845">
        <ele>382</ele>
        <time>2018-03-30T05:25:04Z</time>
      </trkpt>
      <trkpt lat="45.40298" lon="5.12886">
        <ele>381</ele>
        <time>2018-03-30T05:26:04Z</time>
      </trkpt>
      <trkpt lat="45.40297" lon="5.12972">
        <ele>377</ele>
        <time>2018-03-30T05:27:04Z</time>
      </trkpt>
      <trkpt lat="45.40316" lon="5.12994">
        <ele>378</ele>
        <time>2018-03-30T05:28:04Z</time>
      </trkpt>
      <trkpt lat="45.40476" lon="5.13262">
        <ele>376</ele>
        <time>2018-03-30T05:29:04Z</time>
      </trkpt>
      <trkpt lat="45.41187" lon="5.1445">
        <ele>382</ele>
        <time>2018-03-30T05:31:04Z</time>
      </trkpt>
      <trkpt lat="45.4126" lon="5.14617">
        <ele>382</ele>
        <time>2018-03-30T05:32:04Z</time>
      </trkpt>
      <trkpt lat="45.41525" lon="5.15246">
        <ele>394</ele>
        <time>2018-03-30T05:33:04Z</time>
      </trkpt>
      <trkpt lat="45.41544" lon="5.15282">
        <ele>395</ele>
        <time>2018-03-30T05:34:04Z</time>
      </trkpt>
      <trkpt lat="45.41726" lon="5.15511">
        <ele>396</ele>
        <time>2018-03-30T05:35:04Z</time>
      </trkpt>
      <trkpt lat="45.41747" lon="5.15552">
        <ele>397</ele>
        <time>2018-03-30T05:36:04Z</time>
      </trkpt>
      <trkpt lat="45.41876" lon="5.158">
        <ele>402</ele>
        <time>2018-03-30T05:38:04Z</time>
      </trkpt>
      <trkpt lat="45.419" lon="5.15861">
        <ele>402</ele>
        <time>2018-03-30T05:39:04Z</time>
      </trkpt>
      <trkpt lat="45.41931" lon="5.15965">
        <ele>402</ele>
        <time>2018-03-30T05:40:04Z</time>
      </trkpt>
      <trkpt lat="45.41948" lon="5.16017">
        <ele>402</ele>
        <time>2018-03-30T05:41:04Z</time>
      </trkpt>
      <trkpt lat="45.42173" lon="5.16818">
        <ele>402</ele>
        <time>2018-03-30T05:42:04Z</time>
      </trkpt>
      <trkpt lat="45.42308" lon="5.17284">
        <ele>403</ele>
        <time>2018-03-30T05:43:04Z</time>
      </trkpt>
      <trkpt lat="45.42376" lon="5.17529">
        <ele>407</ele>
        <time>2018-03-30T05:44:04Z</time>
      </trkpt>
      <trkpt lat="45.42371" lon="5.17559">
        <ele>407</ele>
        <time>2018-03-30T05:46:04Z</time>
      </trkpt>
      <trkpt lat="45.42362" lon="5.17584">
        <ele>406</ele>
        <time>2018-03-30T05:47:04Z</time>
      </trkpt>
      <trkpt lat="45.42338" lon="5.17611">
        <ele>406</ele>
        <time>2018-03-30T05:48:04Z</time>
      </trkpt>
      <trkpt lat="45.42345" lon="5.17714">
        <ele>407</ele>
        <time>2018-03-30T05:49:04Z</time>
      </trkpt>
      <trkpt lat="45.42333" lon="5.1773">
        <ele>407</ele>
        <time>2018-03-30T05:50:04Z</time>
      </trkpt>
      <trkpt lat="45.42275" lon="5.17808">
        <ele>402</ele>
        <time>2018-03-30T05:52:04Z</time>
      </trkpt>
      <trkpt lat="45.4225" lon="5.17864">
        <ele>400</ele>
        <time>2018-03-30T05:53:04Z</time>
      </trkpt>
      <trkpt lat="45.42239" lon="5.17983">
        <ele>397</ele>
        <time>2018-03-30T05:54:04Z</time>
      </trkpt>
      <trkpt lat="45.42059" lon="5.18096">
        <ele>395</ele>
        <time>2018-03-30T05:55:04Z</time>
      </trkpt>
      <trkpt lat="45.41915" lon="5.18171">
        <ele>398</ele>
        <time>2018-03-30T05:56:04Z</time>
      </trkpt>
      <trkpt lat="45.41613" lon="5.18313">
        <ele>396</ele>
        <time>2018-03-30T05:57:04Z</time>
      </trkpt>
      <trkpt lat="45.41368" lon="5.18482">
        <ele>394</ele>
        <time>2018-03-30T05:58:04Z</time>
      </trkpt>
      <trkpt lat="45.41132" lon="5.18601">
        <ele>395</ele>
        <time>2018-03-30T05:59:04Z</time>
      </trkpt>
      <trkpt lat="45.41061" lon="5.18619">
        <ele>393</ele>
        <time>2018-03-30T06:01:04Z</time>
      </trkpt>
      <trkpt lat="45.41046" lon="5.18631">
        <ele>391</ele>
        <time>2018-03-30T06:02:04Z</time>
      </trkpt>
      <trkpt lat="45.41041" lon="5.18701">
        <ele>388</ele>
        <time>2018-03-30T06:03:04Z</time>
      </trkpt>
      <trkpt lat="45.41053" lon="5.18816">
        <ele>387</ele>
        <time>2018-03-30T06:04:04Z</time>
      </trkpt>
      <trkpt lat="45.41051" lon="5.18836">
        <ele>386</ele>
        <time>2018-03-30T06:05:04Z</time>
      </trkpt>
      <trkpt lat="45.41001" lon="5.18854">
        <ele>378</ele>
        <time>2018-03-30T06:06:04Z</time>
      </trkpt>
      <trkpt lat="45.4098" lon="5.18901">
        <ele>376</ele>
        <time>2018-03-30T06:07:04Z</time>
      </trkpt>
      <trkpt lat="45.40914" lon="5.19089">
        <ele>375</ele>
        <time>2018-03-30T06:08:04Z</time>
      </trkpt>
      <trkpt lat="45.40803" lon="5.19441">
        <ele>379</ele>
        <time>2018-03-30T06:09:04Z</time>
      </trkpt>
      <trkpt lat="45.40663" lon="5.19734">
        <ele>380</ele>
        <time>2018-03-30T06:10:04Z</time>
      </trkpt>
      <trkpt lat="45.40594" lon="5.19893">
        <ele>379</ele>
        <time>2018-03-30T06:11:04Z</time>
      </trkpt>
      <trkpt lat="45.40567" lon="5.19978">
        <ele>379</ele>
        <time>2018-03-30T06:12:04Z</time>
      </trkpt>
      <trkpt lat="45.40559" lon="5.20027">
        <ele>380</ele>
        <time>2018-03-30T06:13:04Z</time>
      </trkpt>
      <trkpt lat="45.40556" lon="5.20095">
        <ele>381</ele>
        <time>2018-03-30T06:14:04Z</time>
      </trkpt>
      <trkpt lat="45.40547" lon="5.20178">
        <ele>382</ele>
        <time>2018-03-30T06:15:04Z</time>
      </trkpt>
      <trkpt lat="45.4048" lon="5.20422">
        <ele>381</ele>
        <time>2018-03-30T06:16:04Z</time>
      </trkpt>
      <trkpt lat="45.40463" lon="5.20488">
        <ele>382</ele>
        <time>2018-03-30T06:17:04Z</time>
      </trkpt>
      <trkpt lat="45.40449" lon="5.20634">
        <ele>383</ele>
        <time>2018-03-30T06:18:04Z</time>
      </trkpt>
      <trkpt lat="45.40444" lon="5.20763">
        <ele>384</ele>
        <time>2018-03-30T06:19:04Z</time>
      </trkpt>
      <trkpt lat="45.40418" lon="5.20786">
        <ele>384</ele>
        <time>2018-03-30T06:20:04Z</time>
      </trkpt>
      <trkpt lat="45.40377" lon="5.2081">
        <ele>385</ele>
        <time>2018-03-30T06:21:04Z</time>
      </trkpt>
      <trkpt lat="45.40345" lon="5.20842">
        <ele>386</ele>
        <time>2018-03-30T06:22:04Z</time>
      </trkpt>
      <trkpt lat="45.40357" lon="5.20901">
        <ele>386</ele>
        <time>2018-03-30T06:23:04Z</time>
      </trkpt>
      <trkpt lat="45.40404" lon="5.21032">
        <ele>387</ele>
        <time>2018-03-30T06:24:04Z</time>
      </trkpt>
      <trkpt lat="45.40409" lon="5.2105">
        <ele>387</ele>
        <time>2018-03-30T06:25:04Z</time>
      </trkpt>
      <trkpt lat="45.4042" lon="5.21089">
        <ele>387</ele>
        <time>2018-03-30T06:27:04Z</time>
      </trkpt>
      <trkpt lat="45.40452" lon="5.21217">
        <ele>388</ele>
        <time>2018-03-30T06:28:04Z</time>
      </trkpt>
      <trkpt lat="45.40471" lon="5.21263">
        <ele>388</ele>
        <time>2018-03-30T06:29:04Z</time>
      </trkpt>
      <trkpt lat="45.40505" lon="5.21328">
        <ele>388</ele>
        <time>2018-03-30T06:30:04Z</time>
      </trkpt>
      <trkpt lat="45.40546" lon="5.21466">
        <ele>389</ele>
        <time>2018-03-30T06:31:04Z</time>
      </trkpt>
      <trkpt lat="45.40628" lon="5.21648">
        <ele>392</ele>
        <time>2018-03-30T06:32:04Z</time>
      </trkpt>
      <trkpt lat="45.40682" lon="5.21765">
        <ele>394</ele>
        <time>2018-03-30T06:33:04Z</time>
      </trkpt>
      <trkpt lat="45.40599" lon="5.21919">
        <ele>395</ele>
        <time>2018-03-30T06:34:04Z</time>
      </trkpt>
      <trkpt lat="45.40513" lon="5.22072">
        <ele>404</ele>
        <time>2018-03-30T06:35:04Z</time>
      </trkpt>
      <trkpt lat="45.40463" lon="5.22188">
        <ele>419</ele>
        <time>2018-03-30T06:36:04Z</time>
      </trkpt>
      <trkpt lat="45.40464" lon="5.22331">
        <ele>427</ele>
        <time>2018-03-30T06:37:04Z</time>
      </trkpt>
      <trkpt lat="45.40475" lon="5.22522">
        <ele>433</ele>
        <time>2018-03-30T06:38:04Z</time>
      </trkpt>
      <trkpt lat="45.40476" lon="5.22615">
        <ele>437</ele>
        <time>2018-03-30T06:39:04Z</time>
      </trkpt>
      <trkpt lat="45.4047" lon="5.22635">
        <ele>439</ele>
        <time>2018-03-30T06:40:04Z</time>
      </trkpt>
      <trkpt lat="45.40461" lon="5.22655">
        <ele>441</ele>
        <time>2018-03-30T06:41:04Z</time>
      </trkpt>
      <trkpt lat="45.40426" lon="5.22707">
        <ele>448</ele>
        <time>2018-03-30T06:42:04Z</time>
      </trkpt>
      <trkpt lat="45.40421" lon="5.22732">
        <ele>448</ele>
        <time>2018-03-30T06:43:04Z</time>
      </trkpt>
      <trkpt lat="45.40391" lon="5.22731">
        <ele>448</ele>
        <time>2018-03-30T06:44:04Z</time>
      </trkpt>
      <trkpt lat="45.40356" lon="5.2274">
        <ele>446</ele>
        <time>2018-03-30T06:45:04Z</time>
      </trkpt>
      <trkpt lat="45.40343" lon="5.22746">
        <ele>444</ele>
        <time>2018-03-30T06:46:04Z</time>
      </trkpt>
      <trkpt lat="45.40344" lon="5.22756">
        <ele>444</ele>
        <time>2018-03-30T06:47:04Z</time>
      </trkpt>
      <trkpt lat="45.4034" lon="5.22773">
        <ele>444</ele>
        <time>2018-03-30T06:48:04Z</time>
      </trkpt>
      <trkpt lat="45.4015" lon="5.22921">
        <ele>436</ele>
        <time>2018-03-30T06:49:04Z</time>
      </trkpt>
      <trkpt lat="45.40088" lon="5.22999">
        <ele>433</ele>
        <time>2018-03-30T06:50:04Z</time>
      </trkpt>
      <trkpt lat="45.39993" lon="5.23159">
        <ele>432</ele>
        <time>2018-03-30T06:51:04Z</time>
      </trkpt>
      <trkpt lat="45.39948" lon="5.23246">
        <ele>428</ele>
        <time>2018-03-30T06:52:04Z</time>
      </trkpt>
      <trkpt lat="45.39913" lon="5.23356">
        <ele>423</ele>
        <time>2018-03-30T06:53:04Z</time>
      </trkpt>
      <trkpt lat="45.39897" lon="5.23436">
        <ele>422</ele>
        <time>2018-03-30T06:54:04Z</time>
      </trkpt>
      <trkpt lat="45.3989" lon="5.23516">
        <ele>423</ele>
        <time>2018-03-30T06:55:04Z</time>
      </trkpt>
      <trkpt lat="45.39877" lon="5.23592">
        <ele>422</ele>
        <time>2018-03-30T06:56:04Z</time>
      </trkpt>
      <trkpt lat="45.39866" lon="5.23633">
        <ele>421</ele>
        <time>2018-03-30T06:57:04Z</time>
      </trkpt>
      <trkpt lat="45.39807" lon="5.23739">
        <ele>415</ele>
        <time>2018-03-30T06:58:04Z</time>
      </trkpt>
      <trkpt lat="45.39787" lon="5.23782">
        <ele>414</ele>
        <time>2018-03-30T06:59:04Z</time>
      </trkpt>
      <trkpt lat="45.39776" lon="5.23823">
        <ele>414</ele>
        <time>2018-03-30T07:00:04Z</time>
      </trkpt>
      <trkpt lat="45.39764" lon="5.23918">
        <ele>414</ele>
        <time>2018-03-30T07:01:04Z</time>
      </trkpt>
      <trkpt lat="45.39754" lon="5.24037">
        <ele>413</ele>
        <time>2018-03-30T07:02:04Z</time>
      </trkpt>
      <trkpt lat="45.39742" lon="5.24141">
        <ele>412</ele>
        <time>2018-03-30T07:03:04Z</time>
      </trkpt>
      <trkpt lat="45.39729" lon="5.24189">
        <ele>410</ele>
        <time>2018-03-30T07:04:04Z</time>
      </trkpt>
      <trkpt lat="45.39708" lon="5.24238">
        <ele>407</ele>
        <time>2018-03-30T07:05:04Z</time>
      </trkpt>
      <trkpt lat="45.39684" lon="5.24281">
        <ele>405</ele>
        <time>2018-03-30T07:06:04Z</time>
      </trkpt>
      <trkpt lat="45.39656" lon="5.24337">
        <ele>403</ele>
        <time>2018-03-30T07:07:04Z</time>
      </trkpt>
      <trkpt lat="45.39632" lon="5.24457">
        <ele>401</ele>
        <time>2018-03-30T07:08:04Z</time>
      </trkpt>
      <trkpt lat="45.39608" lon="5.24601">
        <ele>397</ele>
        <time>2018-03-30T07:10:04Z</time>
      </trkpt>
      <trkpt lat="45.39544" lon="5.24952">
        <ele>392</ele>
        <time>2018-03-30T07:11:04Z</time>
      </trkpt>
      <trkpt lat="45.39518" lon="5.25026">
        <ele>391</ele>
        <time>2018-03-30T07:12:04Z</time>
      </trkpt>
      <trkpt lat="45.39485" lon="5.2511">
        <ele>389</ele>
        <time>2018-03-30T07:13:04Z</time>
      </trkpt>
      <trkpt lat="45.39469" lon="5.25313">
        <ele>387</ele>
        <time>2018-03-30T07:14:04Z</time>
      </trkpt>
      <trkpt lat="45.3946" lon="5.25399">
        <ele>384</ele>
        <time>2018-03-30T07:15:04Z</time>
      </trkpt>
      <trkpt lat="45.39453" lon="5.25437">
        <ele>383</ele>
        <time>2018-03-30T07:16:04Z</time>
      </trkpt>
      <trkpt lat="45.39444" lon="5.25474">
        <ele>381</ele>
        <time>2018-03-30T07:17:04Z</time>
      </trkpt>
      <trkpt lat="45.39384" lon="5.25605">
        <ele>382</ele>
        <time>2018-03-30T07:18:04Z</time>
      </trkpt>
      <trkpt lat="45.39349" lon="5.25689">
        <ele>382</ele>
        <time>2018-03-30T07:19:04Z</time>
      </trkpt>
      <trkpt lat="45.39344" lon="5.25687">
        <ele>381</ele>
        <time>2018-03-30T07:20:04Z</time>
      </trkpt>
      <trkpt lat="45.3934" lon="5.25692">
        <ele>381</ele>
        <time>2018-03-30T07:21:04Z</time>
      </trkpt>
      <trkpt lat="45.39341" lon="5.25698">
        <ele>381</ele>
        <time>2018-03-30T07:22:04Z</time>
      </trkpt>
      <trkpt lat="45.3929" lon="5.25704">
        <ele>378</ele>
        <time>2018-03-30T07:23:04Z</time>
      </trkpt>
      <trkpt lat="45.39279" lon="5.25779">
        <ele>378</ele>
        <time>2018-03-30T07:24:04Z</time>
      </trkpt>
      <trkpt lat="45.39263" lon="5.25843">
        <ele>376</ele>
        <time>2018-03-30T07:25:04Z</time>
      </trkpt>
      <trkpt lat="45.3925" lon="5.25878">
        <ele>376</ele>
        <time>2018-03-30T07:27:04Z</time>
      </trkpt>
      <trkpt lat="45.39238" lon="5.25905">
        <ele>375</ele>
        <time>2018-03-30T07:28:04Z</time>
      </trkpt>
      <trkpt lat="45.39215" lon="5.25946">
        <ele>373</ele>
        <time>2018-03-30T07:29:04Z</time>
      </trkpt>
      <trkpt lat="45.39208" lon="5.25967">
        <ele>372</ele>
        <time>2018-03-30T07:30:04Z</time>
      </trkpt>
      <trkpt lat="45.39214" lon="5.26027">
        <ele>371</ele>
        <time>2018-03-30T07:31:04Z</time>
      </trkpt>
      <trkpt lat="45.39217" lon="5.26095">
        <ele>369</ele>
        <time>2018-03-30T07:32:04Z</time>
      </trkpt>
      <trkpt lat="45.39227" lon="5.26158">
        <ele>370</ele>
        <time>2018-03-30T07:33:04Z</time>
      </trkpt>
      <trkpt lat="45.39234" lon="5.26224">
        <ele>368</ele>
        <time>2018-03-30T07:34:04Z</time>
      </trkpt>
      <trkpt lat="45.39239" lon="5.2624">
        <ele>368</ele>
        <time>2018-03-30T07:35:04Z</time>
      </trkpt>
      <trkpt lat="45.39248" lon="5.26259">
        <ele>368</ele>
        <time>2018-03-30T07:36:04Z</time>
      </trkpt>
      <trkpt lat="45.39275" lon="5.26304">
        <ele>372</ele>
        <time>2018-03-30T07:37:04Z</time>
      </trkpt>
      <trkpt lat="45.39315" lon="5.26355">
        <ele>376</ele>
        <time>2018-03-30T07:38:04Z</time>
      </trkpt>
      <trkpt lat="45.39325" lon="5.26398">
        <ele>379</ele>
        <time>2018-03-30T07:39:04Z</time>
      </trkpt>
      <trkpt lat="45.39326" lon="5.26429">
        <ele>379</ele>
        <time>2018-03-30T07:40:04Z</time>
      </trkpt>
      <trkpt lat="45.39323" lon="5.26517">
        <ele>378</ele>
        <time>2018-03-30T07:41:04Z</time>
      </trkpt>
      <trkpt lat="45.3932" lon="5.27008">
        <ele>380</ele>
        <time>2018-03-30T07:42:04Z</time>
      </trkpt>
      <trkpt lat="45.39316" lon="5.27248">
        <ele>380</ele>
        <time>2018-03-30T07:43:04Z</time>
      </trkpt>
      <trkpt lat="45.39309" lon="5.2735">
        <ele>379</ele>
        <time>2018-03-30T07:44:04Z</time>
      </trkpt>
      <trkpt lat="45.39296" lon="5.27601">
        <ele>372</ele>
        <time>2018-03-30T07:45:04Z</time>
      </trkpt>
      <trkpt lat="45.39293" lon="5.28069">
        <ele>367</ele>
        <time>2018-03-30T07:46:04Z</time>
      </trkpt>
      <trkpt lat="45.39294" lon="5.28297">
        <ele>370</ele>
        <time>2018-03-30T07:47:04Z</time>
      </trkpt>
      <trkpt lat="45.39291" lon="5.28401">
        <ele>372</ele>
        <time>2018-03-30T07:49:04Z</time>
      </trkpt>
      <trkpt lat="45.39237" lon="5.28943">
        <ele>388</ele>
        <time>2018-03-30T07:50:04Z</time>
      </trkpt>
      <trkpt lat="45.39228" lon="5.29026">
        <ele>387</ele>
        <time>2018-03-30T07:51:04Z</time>
      </trkpt>
      <trkpt lat="45.39229" lon="5.29445">
        <ele>381</ele>
        <time>2018-03-30T07:52:04Z</time>
      </trkpt>
      <trkpt lat="45.39225" lon="5.29489">
        <ele>381</ele>
        <time>2018-03-30T07:53:04Z</time>
      </trkpt>
    </trkseg>
  </trk>
</gpx>